Observation data for Vigo Park on 01/18/2019      Previous  Date  Next       Current Mesonet Observations  Soil Data  Daily Summary Page  Observations in Plain Language
KVP1 180600Z 21010KT 03/M01 A2999 RMK A01 T00341014  RH  071%=      5-min Rain = 0
KVP1 180601Z 20010KT 03/M01 A2999 RMK A01 T00341014  RH  071%=      5-min Rain = 0
KVP1 180602Z 20010KT 03/M01 A2999 RMK A01 T00331014  RH  071%=      5-min Rain = 0
KVP1 180603Z 20010KT 03/M02 A2999 RMK A01 T00331015  RH  071%=      5-min Rain = 0
KVP1 180604Z 20010KT 03/M02 A2999 RMK A01 T00321015  RH  071%=      5-min Rain = 0
KVP1 180605Z 20011KT 03/M02 A2999 RMK A01 T00311015  RH  072%=      5-min Rain = 0
KVP1 180606Z 20011KT 03/M02 A2999 RMK A01 T00311015  RH  072%=      5-min Rain = 0
KVP1 180607Z 20011KT 03/M02 A2999 RMK A01 T00321015  RH  072%=      5-min Rain = 0
KVP1 180608Z 20011KT 03/M01 A2999 RMK A01 T00321014  RH  072%=      5-min Rain = 0
KVP1 180609Z 20011KT 03/M01 A2999 RMK A01 T00321014  RH  072%=      5-min Rain = 0
KVP1 180610Z 20011KT 03/M01 A2999 RMK A01 T00331014  RH  071%=      5-min Rain = 0
KVP1 180611Z 19011KT 03/M01 A2999 RMK A01 T00331014  RH  071%=      5-min Rain = 0
KVP1 180612Z 20011KT 03/M01 A2999 RMK A01 T00331014  RH  071%=      5-min Rain = 0
KVP1 180613Z 19011KT 03/M01 A2999 RMK A01 T00331014  RH  071%=      5-min Rain = 0
KVP1 180614Z 19011KT 03/M01 A2999 RMK A01 T00321014  RH  071%=      5-min Rain = 0
KVP1 180615Z 20011KT 03/M01 A2999 RMK A01 T00321014  RH  071%=      5-min Rain = 0
KVP1 180616Z 20011KT 03/M01 A2999 RMK A01 T00331014  RH  071%=      5-min Rain = 0
KVP1 180617Z 19011KT 03/M01 A2999 RMK A01 T00331014  RH  071%=      5-min Rain = 0
KVP1 180618Z 20012KT 03/M01 A2999 RMK A01 T00331014  RH  071%=      5-min Rain = 0
KVP1 180619Z 20011KT 03/M01 A2999 RMK A01 T00341014  RH  071%=      5-min Rain = 0
KVP1 180620Z 19011KT 03/M01 A2999 RMK A01 T00341014  RH  071%=      5-min Rain = 0
KVP1 180621Z 19011KT 03/M01 A2998 RMK A01 T00341014  RH  071%=      5-min Rain = 0
KVP1 180622Z 19011KT 03/M01 A2998 RMK A01 T00341014  RH  071%=      5-min Rain = 0
KVP1 180623Z 19011KT 03/M01 A2998 RMK A01 T00341014  RH  071%=      5-min Rain = 0
KVP1 180624Z 20011KT 03/M02 A2998 RMK A01 T00331015  RH  071%=      5-min Rain = 0
KVP1 180625Z 20010KT 03/M02 A2998 RMK A01 T00331015  RH  071%=      5-min Rain = 0
KVP1 180626Z 20010KT 03/M02 A2998 RMK A01 T00331015  RH  071%=      5-min Rain = 0
KVP1 180627Z 20010KT 03/M02 A2998 RMK A01 T00321016  RH  071%=      5-min Rain = 0
KVP1 180628Z 20010KT 03/M02 A2998 RMK A01 T00311015  RH  071%=      5-min Rain = 0
KVP1 180629Z 20010KT 03/M01 A2998 RMK A01 T00321014  RH  072%=      5-min Rain = 0
KVP1 180630Z 20010KT 03/M01 A2998 RMK A01 T00321014  RH  072%=      5-min Rain = 0
KVP1 180631Z 21009KT 03/M01 A2998 RMK A01 T00311014  RH  072%=      5-min Rain = 0
KVP1 180632Z 21009KT 03/M01 A2998 RMK A01 T00321013  RH  072%=      5-min Rain = 0
KVP1 180633Z 21009KT 03/M01 A2998 RMK A01 T00311014  RH  072%=      5-min Rain = 0
KVP1 180634Z 21009KT 03/M01 A2998 RMK A01 T00321014  RH  072%=      5-min Rain = 0
KVP1 180635Z 21009KT 03/M01 A2998 RMK A01 T00311014  RH  072%=      5-min Rain = 0
KVP1 180636Z 21009KT 03/M01 A2998 RMK A01 T00311014  RH  072%=      5-min Rain = 0
KVP1 180637Z 21009KT 03/M01 A2998 RMK A01 T00301014  RH  073%=      5-min Rain = 0
KVP1 180638Z 21009KT 03/M02 A2998 RMK A01 T00291015  RH  073%=      5-min Rain = 0
KVP1 180639Z 21009KT 03/M02 A2998 RMK A01 T00291015  RH  073%=      5-min Rain = 0
KVP1 180640Z 21009KT 03/M02 A2998 RMK A01 T00281015  RH  073%=      5-min Rain = 0
KVP1 180641Z 21009KT 03/M02 A2997 RMK A01 T00281016  RH  073%=      5-min Rain = 0
KVP1 180642Z 21009KT 03/M02 A2997 RMK A01 T00271016  RH  073%=      5-min Rain = 0
KVP1 180643Z 21009KT 03/M02 A2997 RMK A01 T00261016  RH  073%=      5-min Rain = 0
KVP1 180644Z 21009KT 03/M02 A2997 RMK A01 T00261017  RH  074%=      5-min Rain = 0
KVP1 180645Z 21009KT 03/M02 A2997 RMK A01 T00251017  RH  074%=      5-min Rain = 0
KVP1 180646Z 21009KT 02/M02 A2997 RMK A01 T00241018  RH  074%=      5-min Rain = 0
KVP1 180647Z 21009KT 02/M02 A2997 RMK A01 T00231018  RH  074%=      5-min Rain = 0
KVP1 180648Z 21009KT 02/M02 A2997 RMK A01 T00211019  RH  075%=      5-min Rain = 0
KVP1 180649Z 21009KT 02/M02 A2997 RMK A01 T00211019  RH  075%=      5-min Rain = 0
KVP1 180650Z 21009KT 02/M02 A2997 RMK A01 T00201019  RH  075%=      5-min Rain = 0
KVP1 180651Z 21009KT 02/M02 A2997 RMK A01 T00191020  RH  075%=      5-min Rain = 0
KVP1 180652Z 21010KT 02/M02 A2997 RMK A01 T00181020  RH  076%=      5-min Rain = 0
KVP1 180653Z 21010KT 02/M02 A2997 RMK A01 T00171020  RH  076%=      5-min Rain = 0
KVP1 180654Z 21009KT 02/M02 A2997 RMK A01 T00171020  RH  077%=      5-min Rain = 0
KVP1 180655Z 21009KT 02/M02 A2997 RMK A01 T00161020  RH  077%=      5-min Rain = 0
KVP1 180656Z 21010KT 02/M02 A2996 RMK A01 T00161020  RH  077%=      5-min Rain = 0
KVP1 180657Z 21010KT 02/M02 A2996 RMK A01 T00161020  RH  077%=      5-min Rain = 0
KVP1 180658Z 21010KT 02/M02 A2996 RMK A01 T00161020  RH  077%=      5-min Rain = 0
KVP1 180659Z 21010KT 02/M02 A2996 RMK A01 T00151021  RH  077%=      5-min Rain = 0
KVP1 180700Z 21010KT 02/M02 A2996 RMK A01 T00151021  RH  077%=      5-min Rain = 0
KVP1 180701Z 21011KT 02/M02 A2996 RMK A01 T00151021  RH  077%=      5-min Rain = 0
KVP1 180702Z 21010KT 02/M02 A2996 RMK A01 T00161021  RH  077%=      5-min Rain = 0
KVP1 180703Z 21010KT 02/M02 A2996 RMK A01 T00171021  RH  076%=      5-min Rain = 0
KVP1 180704Z 21010KT 02/M02 A2996 RMK A01 T00171021  RH  076%=      5-min Rain = 0
KVP1 180705Z 21009KT 02/M02 A2996 RMK A01 T00171022  RH  076%=      5-min Rain = 0
KVP1 180706Z 21009KT 02/M02 A2996 RMK A01 T00171021  RH  076%=      5-min Rain = 0
KVP1 180707Z 21009KT 02/M02 A2996 RMK A01 T00171021  RH  076%=      5-min Rain = 0
KVP1 180708Z 21010KT 02/M02 A2996 RMK A01 T00171022  RH  075%=      5-min Rain = 0
KVP1 180709Z 21010KT 02/M02 A2996 RMK A01 T00171022  RH  075%=      5-min Rain = 0
KVP1 180710Z 22010KT 02/M02 A2996 RMK A01 T00161023  RH  075%=      5-min Rain = 0
KVP1 180711Z 22010KT 02/M02 A2996 RMK A01 T00151023  RH  076%=      5-min Rain = 0
KVP1 180712Z 22010KT 02/M02 A2996 RMK A01 T00151023  RH  076%=      5-min Rain = 0
KVP1 180713Z 22010KT 02/M02 A2996 RMK A01 T00151023  RH  076%=      5-min Rain = 0
KVP1 180714Z 22009KT 02/M02 A2996 RMK A01 T00151023  RH  076%=      5-min Rain = 0
KVP1 180715Z 22009KT 02/M02 A2996 RMK A01 T00151024  RH  076%=      5-min Rain = 0
KVP1 180716Z 23008KT 01/M02 A2996 RMK A01 T00141024  RH  076%=      5-min Rain = 0
KVP1 180717Z 23009KT 01/M03 A2996 RMK A01 T00141025  RH  076%=      5-min Rain = 0
KVP1 180718Z 23009KT 01/M03 A2996 RMK A01 T00131025  RH  076%=      5-min Rain = 0
KVP1 180719Z 23009KT 01/M03 A2996 RMK A01 T00121026  RH  076%=      5-min Rain = 0
KVP1 180720Z 23009KT 01/M03 A2997 RMK A01 T00111026  RH  076%=      5-min Rain = 0
KVP1 180721Z 24009KT 01/M03 A2997 RMK A01 T00101026  RH  076%=      5-min Rain = 0
KVP1 180722Z 24009KT 01/M03 A2997 RMK A01 T00111026  RH  077%=      5-min Rain = 0
KVP1 180723Z 24009KT 01/M03 A2997 RMK A01 T00111026  RH  077%=      5-min Rain = 0
KVP1 180724Z 24009KT 01/M03 A2997 RMK A01 T00121025  RH  076%=      5-min Rain = 0
KVP1 180725Z 24009KT 01/M03 A2997 RMK A01 T00131025  RH  076%=      5-min Rain = 0
KVP1 180726Z 23009KT 01/M03 A2997 RMK A01 T00141025  RH  076%=      5-min Rain = 0
KVP1 180727Z 23009KT 02/M03 A2997 RMK A01 T00151025  RH  075%=      5-min Rain = 0
KVP1 180728Z 23009KT 02/M03 A2996 RMK A01 T00151025  RH  075%=      5-min Rain = 0
KVP1 180729Z 23009KT 02/M03 A2996 RMK A01 T00161025  RH  074%=      5-min Rain = 0
KVP1 180730Z 23009KT 02/M03 A2996 RMK A01 T00171025  RH  074%=      5-min Rain = 0
KVP1 180731Z 23008KT 02/M03 A2996 RMK A01 T00171025  RH  074%=      5-min Rain = 0
KVP1 180732Z 23008KT 02/M03 A2996 RMK A01 T00171026  RH  074%=      5-min Rain = 0
KVP1 180733Z 23008KT 02/M03 A2996 RMK A01 T00161026  RH  074%=      5-min Rain = 0
KVP1 180734Z 23009KT 01/M03 A2996 RMK A01 T00141027  RH  074%=      5-min Rain = 0
KVP1 180735Z 22009KT 01/M03 A2996 RMK A01 T00131027  RH  074%=      5-min Rain = 0
KVP1 180736Z 22009KT 01/M03 A2995 RMK A01 T00131028  RH  074%=      5-min Rain = 0
KVP1 180737Z 22009KT 01/M03 A2995 RMK A01 T00121028  RH  075%=      5-min Rain = 0
KVP1 180738Z 21010KT 01/M03 A2995 RMK A01 T00121028  RH  075%=      5-min Rain = 0
KVP1 180739Z 21009KT 01/M03 A2995 RMK A01 T00111028  RH  075%=      5-min Rain = 0
KVP1 180740Z 21009KT 01/M03 A2995 RMK A01 T00101028  RH  075%=      5-min Rain = 0
KVP1 180741Z 21009KT 01/M03 A2995 RMK A01 T00101028  RH  076%=      5-min Rain = 0
KVP1 180742Z 21010KT 01/M03 A2995 RMK A01 T00101028  RH  076%=      5-min Rain = 0
KVP1 180743Z 21009KT 01/M03 A2995 RMK A01 T00091029  RH  076%=      5-min Rain = 0
KVP1 180744Z 21009KT 01/M03 A2995 RMK A01 T00091029  RH  076%=      5-min Rain = 0
KVP1 180745Z 21009KT 01/M03 A2995 RMK A01 T00081030  RH  076%=      5-min Rain = 0
KVP1 180746Z 21009KT 01/M03 A2995 RMK A01 T00071030  RH  076%=      5-min Rain = 0
KVP1 180747Z 21009KT 01/M03 A2994 RMK A01 T00071030  RH  076%=      5-min Rain = 0
KVP1 180748Z 21009KT 01/M03 A2994 RMK A01 T00061031  RH  077%=      5-min Rain = 0
KVP1 180749Z 21009KT 01/M03 A2994 RMK A01 T00051031  RH  077%=      5-min Rain = 0
KVP1 180750Z 21009KT 01/M03 A2994 RMK A01 T00051031  RH  077%=      5-min Rain = 0
KVP1 180751Z 21009KT 01/M03 A2994 RMK A01 T00051031  RH  077%=      5-min Rain = 0
KVP1 180752Z 21009KT 01/M03 A2994 RMK A01 T00051031  RH  077%=      5-min Rain = 0
KVP1 180753Z 21009KT 00/M03 A2994 RMK A01 T00041031  RH  077%=      5-min Rain = 0
KVP1 180754Z 21010KT 00/M03 A2994 RMK A01 T00041031  RH  077%=      5-min Rain = 0
KVP1 180755Z 21010KT 00/M03 A2993 RMK A01 T00041031  RH  077%=      5-min Rain = 0
KVP1 180756Z 20011KT 00/M03 A2993 RMK A01 T00041031  RH  078%=      5-min Rain = 0
KVP1 180757Z 20010KT 01/M03 A2993 RMK A01 T00051029  RH  078%=      5-min Rain = 0
KVP1 180758Z 20011KT 01/M03 A2993 RMK A01 T00071028  RH  077%=      5-min Rain = 0
KVP1 180759Z 20011KT 01/M03 A2993 RMK A01 T00081027  RH  077%=      5-min Rain = 0
KVP1 180800Z 21012KT 01/M03 A2993 RMK A01 T00111025  RH  077%=      5-min Rain = 0
KVP1 180801Z 21012KT 01/M02 A2993 RMK A01 T00141024  RH  076%=      5-min Rain = 0
KVP1 180802Z 21013KT 02/M02 A2993 RMK A01 T00161023  RH  075%=      5-min Rain = 0
KVP1 180803Z 21013KT 02/M02 A2993 RMK A01 T00191023  RH  074%=      5-min Rain = 0
KVP1 180804Z 21012KT 02/M02 A2993 RMK A01 T00201022  RH  074%=      5-min Rain = 0
KVP1 180805Z 22011KT 02/M02 A2993 RMK A01 T00231020  RH  073%=      5-min Rain = 0
KVP1 180806Z 22012KT 02/M02 A2993 RMK A01 T00241020  RH  073%=      5-min Rain = 0
KVP1 180807Z 22013KT 03/M02 A2993 RMK A01 T00261018  RH  073%=      5-min Rain = 0
KVP1 180808Z 22013KT 03/M02 A2993 RMK A01 T00291017  RH  072%=      5-min Rain = 0
KVP1 180809Z 22014KT 03/M02 A2993 RMK A01 T00301017  RH  071%=      5-min Rain = 0
KVP1 180810Z 22013KT 03/M02 A2993 RMK A01 T00321016  RH  071%=      5-min Rain = 0
KVP1 180811Z 22013KT 03/M02 A2993 RMK A01 T00331016  RH  070%=      5-min Rain = 0
KVP1 180812Z 22013KT 03/M02 A2993 RMK A01 T00341015  RH  070%=      5-min Rain = 0
KVP1 180813Z 22013KT 04/M02 A2993 RMK A01 T00351015  RH  070%=      5-min Rain = 0
KVP1 180814Z 22013KT 04/M02 A2993 RMK A01 T00371015  RH  069%=      5-min Rain = 0
KVP1 180815Z 22013KT 04/M02 A2993 RMK A01 T00371015  RH  069%=      5-min Rain = 0
KVP1 180816Z 22013KT 04/M02 A2993 RMK A01 T00371015  RH  069%=      5-min Rain = 0
KVP1 180817Z 22013KT 04/M02 A2992 RMK A01 T00371015  RH  069%=      5-min Rain = 0
KVP1 180818Z 22013KT 04/M02 A2992 RMK A01 T00371015  RH  068%=      5-min Rain = 0
KVP1 180819Z 22013KT 04/M02 A2992 RMK A01 T00381015  RH  068%=      5-min Rain = 0
KVP1 180820Z 22013KT 04/M02 A2992 RMK A01 T00391015  RH  068%=      5-min Rain = 0
KVP1 180821Z 22012KT 04/M02 A2992 RMK A01 T00391015  RH  068%=      5-min Rain = 0
KVP1 180822Z 21012KT 04/M02 A2992 RMK A01 T00371016  RH  068%=      5-min Rain = 0
KVP1 180823Z 21013KT 04/M02 A2992 RMK A01 T00361016  RH  068%=      5-min Rain = 0
KVP1 180824Z 21014KT 04/M02 A2992 RMK A01 T00361016  RH  069%=      5-min Rain = 0
KVP1 180825Z 21012KT 04/M02 A2992 RMK A01 T00361016  RH  069%=      5-min Rain = 0
KVP1 180826Z 22013KT 04/M02 A2992 RMK A01 T00371016  RH  069%=      5-min Rain = 0
KVP1 180827Z 21013KT 04/M02 A2992 RMK A01 T00371016  RH  069%=      5-min Rain = 0
KVP1 180828Z 21012KT 04/M02 A2992 RMK A01 T00371016  RH  068%=      5-min Rain = 0
KVP1 180829Z 21013KT 04/M02 A2992 RMK A01 T00371016  RH  068%=      5-min Rain = 0
KVP1 180830Z 22012KT 04/M02 A2992 RMK A01 T00371016  RH  069%=      5-min Rain = 0
KVP1 180831Z 22012KT 04/M02 A2992 RMK A01 T00361016  RH  069%=      5-min Rain = 0
KVP1 180832Z 22013KT 04/M02 A2992 RMK A01 T00361016  RH  069%=      5-min Rain = 0
KVP1 180833Z 22013KT 04/M02 A2992 RMK A01 T00371015  RH  069%=      5-min Rain = 0
KVP1 180834Z 22013KT 04/M02 A2992 RMK A01 T00371015  RH  069%=      5-min Rain = 0
KVP1 180835Z 22013KT 04/M01 A2992 RMK A01 T00381014  RH  069%=      5-min Rain = 0
KVP1 180836Z 22015KT 04/M01 A2992 RMK A01 T00391014  RH  069%=      5-min Rain = 0
KVP1 180837Z 22015KT 04/M01 A2992 RMK A01 T00401013  RH  068%=      5-min Rain = 0
KVP1 180838Z 22014KT 04/M01 A2992 RMK A01 T00421013  RH  068%=      5-min Rain = 0
KVP1 180839Z 22014KT 04/M01 A2992 RMK A01 T00421013  RH  067%=      5-min Rain = 0
KVP1 180840Z 22014KT 04/M01 A2992 RMK A01 T00431012  RH  067%=      5-min Rain = 0
KVP1 180841Z 22013KT 04/M01 A2992 RMK A01 T00441012  RH  067%=      5-min Rain = 0
KVP1 180842Z 22012KT 04/M01 A2992 RMK A01 T00431013  RH  067%=      5-min Rain = 0
KVP1 180843Z 22013KT 04/M01 A2991 RMK A01 T00431012  RH  067%=      5-min Rain = 0
KVP1 180844Z 22013KT 04/M01 A2991 RMK A01 T00431013  RH  067%=      5-min Rain = 0
KVP1 180845Z 22014KT 04/M01 A2991 RMK A01 T00431012  RH  067%=      5-min Rain = 0
KVP1 180846Z 22014KT 04/M01 A2991 RMK A01 T00431012  RH  068%=      5-min Rain = 0
KVP1 180847Z 22013KT 04/M01 A2991 RMK A01 T00431012  RH  067%=      5-min Rain = 0
KVP1 180848Z 22013KT 04/M01 A2991 RMK A01 T00431012  RH  067%=      5-min Rain = 0
KVP1 180849Z 22013KT 04/M01 A2991 RMK A01 T00431012  RH  067%=      5-min Rain = 0
KVP1 180850Z 22013KT 04/M01 A2991 RMK A01 T00431012  RH  067%=      5-min Rain = 0
KVP1 180851Z 22013KT 04/M01 A2991 RMK A01 T00431013  RH  067%=      5-min Rain = 0
KVP1 180852Z 22012KT 04/M01 A2991 RMK A01 T00421013  RH  067%=      5-min Rain = 0
KVP1 180853Z 22013KT 04/M01 A2991 RMK A01 T00421013  RH  068%=      5-min Rain = 0
KVP1 180854Z 22012KT 04/M01 A2991 RMK A01 T00411013  RH  068%=      5-min Rain = 0
KVP1 180855Z 22011KT 04/M01 A2991 RMK A01 T00401014  RH  068%=      5-min Rain = 0
KVP1 180856Z 22011KT 04/M02 A2991 RMK A01 T00391015  RH  068%=      5-min Rain = 0
KVP1 180857Z 23011KT 04/M02 A2991 RMK A01 T00381015  RH  069%=      5-min Rain = 0
KVP1 180858Z 23011KT 04/M02 A2991 RMK A01 T00361015  RH  069%=      5-min Rain = 0
KVP1 180859Z 23010KT 04/M02 A2991 RMK A01 T00351016  RH  069%=      5-min Rain = 0
KVP1 180900Z 23010KT 03/M02 A2991 RMK A01 T00341016  RH  070%=      5-min Rain = 0
KVP1 180901Z 23010KT 03/M02 A2991 RMK A01 T00331016  RH  070%=      5-min Rain = 0
KVP1 180902Z 24010KT 03/M02 A2991 RMK A01 T00331016  RH  070%=      5-min Rain = 0
KVP1 180903Z 24010KT 03/M02 A2991 RMK A01 T00321016  RH  071%=      5-min Rain = 0
KVP1 180904Z 24009KT 03/M02 A2991 RMK A01 T00321016  RH  071%=      5-min Rain = 0
KVP1 180905Z 24009KT 03/M02 A2991 RMK A01 T00311016  RH  071%=      5-min Rain = 0
KVP1 180906Z 23009KT 03/M02 A2991 RMK A01 T00301016  RH  071%=      5-min Rain = 0
KVP1 180907Z 23009KT 03/M02 A299 RMK A01 T00301016  RH  071%=      5-min Rain = 0
KVP1 180908Z 23009KT 03/M02 A299 RMK A01 T00301017  RH  072%=      5-min Rain = 0
KVP1 180909Z 23009KT 03/M02 A299 RMK A01 T00291017  RH  072%=      5-min Rain = 0
KVP1 180910Z 23009KT 03/M02 A299 RMK A01 T00281017  RH  072%=      5-min Rain = 0
KVP1 180911Z 22009KT 03/M02 A299 RMK A01 T00281017  RH  072%=      5-min Rain = 0
KVP1 180912Z 22009KT 03/M02 A299 RMK A01 T00271018  RH  072%=      5-min Rain = 0
KVP1 180913Z 22010KT 03/M02 A299 RMK A01 T00261018  RH  073%=      5-min Rain = 0
KVP1 180914Z 22010KT 03/M02 A299 RMK A01 T00261018  RH  073%=      5-min Rain = 0
KVP1 180915Z 22010KT 03/M02 A299 RMK A01 T00261018  RH  073%=      5-min Rain = 0
KVP1 180916Z 22010KT 03/M02 A299 RMK A01 T00251018  RH  073%=      5-min Rain = 0
KVP1 180917Z 23009KT 03/M02 A299 RMK A01 T00251018  RH  074%=      5-min Rain = 0
KVP1 180918Z 23010KT 02/M02 A299 RMK A01 T00241018  RH  074%=      5-min Rain = 0
KVP1 180919Z 23009KT 02/M02 A299 RMK A01 T00241018  RH  074%=      5-min Rain = 0
KVP1 180920Z 23010KT 02/M02 A299 RMK A01 T00231018  RH  074%=      5-min Rain = 0
KVP1 180921Z 23010KT 02/M02 A299 RMK A01 T00231018  RH  074%=      5-min Rain = 0
KVP1 180922Z 23010KT 02/M02 A299 RMK A01 T00231018  RH  074%=      5-min Rain = 0
KVP1 180923Z 24009KT 02/M02 A299 RMK A01 T00231018  RH  074%=      5-min Rain = 0
KVP1 180924Z 24009KT 02/M02 A299 RMK A01 T00231018  RH  074%=      5-min Rain = 0
KVP1 180925Z 23010KT 02/M02 A299 RMK A01 T00231018  RH  074%=      5-min Rain = 0
KVP1 180926Z 23010KT 02/M02 A299 RMK A01 T00231018  RH  074%=      5-min Rain = 0
KVP1 180927Z 22011KT 02/M02 A299 RMK A01 T00241017  RH  074%=      5-min Rain = 0
KVP1 180928Z 22011KT 03/M02 A299 RMK A01 T00251016  RH  074%=      5-min Rain = 0
KVP1 180929Z 23011KT 03/M02 A299 RMK A01 T00271015  RH  073%=      5-min Rain = 0
KVP1 180930Z 23010KT 03/M02 A299 RMK A01 T00281016  RH  073%=      5-min Rain = 0
KVP1 180931Z 23010KT 03/M02 A299 RMK A01 T00281015  RH  073%=      5-min Rain = 0
KVP1 180932Z 23010KT 03/M02 A299 RMK A01 T00281015  RH  073%=      5-min Rain = 0
KVP1 180933Z 24010KT 03/M02 A299 RMK A01 T00281015  RH  073%=      5-min Rain = 0
KVP1 180934Z 24010KT 03/M02 A299 RMK A01 T00291015  RH  073%=      5-min Rain = 0
KVP1 180935Z 24010KT 03/M02 A299 RMK A01 T00291015  RH  073%=      5-min Rain = 0
KVP1 180936Z 24008KT 03/M02 A299 RMK A01 T00291015  RH  073%=      5-min Rain = 0
KVP1 180937Z 24008KT 03/M02 A299 RMK A01 T00291015  RH  073%=      5-min Rain = 0
KVP1 180938Z 24009KT 03/M02 A299 RMK A01 T00291016  RH  073%=      5-min Rain = 0
KVP1 180939Z 24009KT 03/M02 A2989 RMK A01 T00281016  RH  073%=      5-min Rain = 0
KVP1 180940Z 23009KT 03/M02 A2989 RMK A01 T00281016  RH  073%=      5-min Rain = 0
KVP1 180941Z 23009KT 03/M02 A2989 RMK A01 T00271017  RH  073%=      5-min Rain = 0
KVP1 180942Z 23009KT 03/M02 A2989 RMK A01 T00271016  RH  073%=      5-min Rain = 0
KVP1 180943Z 23008KT 03/M02 A2989 RMK A01 T00261016  RH  074%=      5-min Rain = 0
KVP1 180944Z 23008KT 03/M02 A2989 RMK A01 T00261016  RH  074%=      5-min Rain = 0
KVP1 180945Z 23008KT 03/M02 A2989 RMK A01 T00261016  RH  074%=      5-min Rain = 0
KVP1 180946Z 23008KT 03/M02 A2989 RMK A01 T00251017  RH  074%=      5-min Rain = 0
KVP1 180947Z 23008KT 02/M02 A2989 RMK A01 T00241017  RH  074%=      5-min Rain = 0
KVP1 180948Z 23008KT 02/M02 A2989 RMK A01 T00231017  RH  075%=      5-min Rain = 0
KVP1 180949Z 23008KT 02/M02 A2989 RMK A01 T00221018  RH  075%=      5-min Rain = 0
KVP1 180950Z 23008KT 02/M02 A2989 RMK A01 T00221017  RH  076%=      5-min Rain = 0
KVP1 180951Z 23008KT 02/M02 A2989 RMK A01 T00221017  RH  076%=      5-min Rain = 0
KVP1 180952Z 24008KT 02/M02 A2989 RMK A01 T00211017  RH  076%=      5-min Rain = 0
KVP1 180953Z 24008KT 02/M02 A2989 RMK A01 T00211017  RH  076%=      5-min Rain = 0
KVP1 180954Z 24008KT 02/M02 A2989 RMK A01 T00211016  RH  076%=      5-min Rain = 0
KVP1 180955Z 24008KT 02/M02 A2989 RMK A01 T00211017  RH  076%=      5-min Rain = 0
KVP1 180956Z 23009KT 02/M02 A2988 RMK A01 T00221016  RH  076%=      5-min Rain = 0
KVP1 180957Z 23009KT 02/M02 A2988 RMK A01 T00221016  RH  076%=      5-min Rain = 0
KVP1 180958Z 23008KT 02/M02 A2988 RMK A01 T00221016  RH  076%=      5-min Rain = 0
KVP1 180959Z 23009KT 02/M02 A2988 RMK A01 T00221016  RH  076%=      5-min Rain = 0
KVP1 181000Z 22009KT 02/M02 A2988 RMK A01 T00221016  RH  076%=      5-min Rain = 0
KVP1 181001Z 22009KT 02/M02 A2988 RMK A01 T00231016  RH  076%=      5-min Rain = 0
KVP1 181002Z 22009KT 02/M02 A2988 RMK A01 T00221016  RH  076%=      5-min Rain = 0
KVP1 181003Z 22008KT 02/M02 A2988 RMK A01 T00221016  RH  076%=      5-min Rain = 0
KVP1 181004Z 22008KT 02/M02 A2988 RMK A01 T00211016  RH  076%=      5-min Rain = 0
KVP1 181005Z 23008KT 02/M02 A2988 RMK A01 T00201016  RH  077%=      5-min Rain = 0
KVP1 181006Z 23009KT 02/M02 A2988 RMK A01 T00201017  RH  077%=      5-min Rain = 0
KVP1 181007Z 23008KT 02/M02 A2988 RMK A01 T00201016  RH  077%=      5-min Rain = 0
KVP1 181008Z 22009KT 02/M02 A2987 RMK A01 T00201016  RH  077%=      5-min Rain = 0
KVP1 181009Z 22010KT 02/M02 A2987 RMK A01 T00201016  RH  077%=      5-min Rain = 0
KVP1 181010Z 22010KT 02/M02 A2987 RMK A01 T00221015  RH  077%=      5-min Rain = 0
KVP1 181011Z 22010KT 02/M02 A2987 RMK A01 T00231015  RH  076%=      5-min Rain = 0
KVP1 181012Z 22009KT 02/M01 A2987 RMK A01 T00241014  RH  076%=      5-min Rain = 0
KVP1 181013Z 21009KT 02/M01 A2987 RMK A01 T00241014  RH  076%=      5-min Rain = 0
KVP1 181014Z 21009KT 02/M02 A2986 RMK A01 T00241015  RH  076%=      5-min Rain = 0
KVP1 181015Z 21009KT 02/M02 A2986 RMK A01 T00241015  RH  075%=      5-min Rain = 0
KVP1 181016Z 22009KT 02/M02 A2986 RMK A01 T00241015  RH  075%=      5-min Rain = 0
KVP1 181017Z 22008KT 02/M02 A2986 RMK A01 T00231016  RH  076%=      5-min Rain = 0
KVP1 181018Z 22007KT 02/M02 A2986 RMK A01 T00231016  RH  076%=      5-min Rain = 0
KVP1 181019Z 22009KT 02/M02 A2986 RMK A01 T00221016  RH  076%=      5-min Rain = 0
KVP1 181020Z 22008KT 02/M02 A2986 RMK A01 T00211016  RH  076%=      5-min Rain = 0
KVP1 181021Z 22008KT 02/M02 A2986 RMK A01 T00211016  RH  077%=      5-min Rain = 0
KVP1 181022Z 22009KT 02/M02 A2986 RMK A01 T00221015  RH  077%=      5-min Rain = 0
KVP1 181023Z 22008KT 02/M02 A2986 RMK A01 T00221015  RH  077%=      5-min Rain = 0
KVP1 181024Z 22009KT 02/M01 A2986 RMK A01 T00241014  RH  076%=      5-min Rain = 0
KVP1 181025Z 22010KT 03/M01 A2986 RMK A01 T00251013  RH  076%=      5-min Rain = 0
KVP1 181026Z 23009KT 03/M01 A2986 RMK A01 T00271013  RH  075%=      5-min Rain = 0
KVP1 181027Z 23010KT 03/M01 A2986 RMK A01 T00291012  RH  075%=      5-min Rain = 0
KVP1 181028Z 23010KT 03/M01 A2986 RMK A01 T00301011  RH  074%=      5-min Rain = 0
KVP1 181029Z 23010KT 03/M01 A2986 RMK A01 T00321011  RH  073%=      5-min Rain = 0
KVP1 181030Z 22010KT 03/M01 A2986 RMK A01 T00331011  RH  073%=      5-min Rain = 0
KVP1 181031Z 22009KT 03/M01 A2986 RMK A01 T00331011  RH  073%=      5-min Rain = 0
KVP1 181032Z 22009KT 03/M01 A2985 RMK A01 T00341011  RH  073%=      5-min Rain = 0
KVP1 181033Z 22009KT 03/M01 A2985 RMK A01 T00341011  RH  072%=      5-min Rain = 0
KVP1 181034Z 22010KT 03/M01 A2985 RMK A01 T00341011  RH  072%=      5-min Rain = 0
KVP1 181035Z 22009KT 03/M01 A2985 RMK A01 T00341011  RH  072%=      5-min Rain = 0
KVP1 181036Z 22009KT 04/M01 A2985 RMK A01 T00351010  RH  072%=      5-min Rain = 0
KVP1 181037Z 22009KT 04/M01 A2985 RMK A01 T00351010  RH  072%=      5-min Rain = 0
KVP1 181038Z 22011KT 04/M01 A2985 RMK A01 T00351010  RH  072%=      5-min Rain = 0
KVP1 181039Z 22011KT 04/M01 A2985 RMK A01 T00361010  RH  072%=      5-min Rain = 0
KVP1 181040Z 22012KT 04/M01 A2984 RMK A01 T00371010  RH  071%=      5-min Rain = 0
KVP1 181041Z 22011KT 04/M01 A2984 RMK A01 T00371010  RH  071%=      5-min Rain = 0
KVP1 181042Z 22011KT 04/M01 A2984 RMK A01 T00381010  RH  071%=      5-min Rain = 0
KVP1 181043Z 22012KT 04/M01 A2984 RMK A01 T00381011  RH  070%=      5-min Rain = 0
KVP1 181044Z 22011KT 04/M01 A2984 RMK A01 T00381011  RH  070%=      5-min Rain = 0
KVP1 181045Z 22012KT 04/M01 A2984 RMK A01 T00381011  RH  070%=      5-min Rain = 0
KVP1 181046Z 22011KT 04/M01 A2984 RMK A01 T00381011  RH  070%=      5-min Rain = 0
KVP1 181047Z 22012KT 04/M01 A2984 RMK A01 T00381012  RH  070%=      5-min Rain = 0
KVP1 181048Z 23012KT 04/M01 A2984 RMK A01 T00381012  RH  070%=      5-min Rain = 0
KVP1 181049Z 23012KT 04/M01 A2984 RMK A01 T00391012  RH  070%=      5-min Rain = 0
KVP1 181050Z 23011KT 04/M01 A2984 RMK A01 T00381012  RH  070%=      5-min Rain = 0
KVP1 181051Z 23011KT 04/M01 A2984 RMK A01 T00381012  RH  070%=      5-min Rain = 0
KVP1 181052Z 23011KT 04/M01 A2984 RMK A01 T00371013  RH  070%=      5-min Rain = 0
KVP1 181053Z 23010KT 04/M01 A2984 RMK A01 T00361013  RH  070%=      5-min Rain = 0
KVP1 181054Z 23011KT 04/M01 A2984 RMK A01 T00361013  RH  070%=      5-min Rain = 0
KVP1 181055Z 23011KT 04/M01 A2984 RMK A01 T00361013  RH  070%=      5-min Rain = 0
KVP1 181056Z 23011KT 04/M01 A2984 RMK A01 T00361014  RH  070%=      5-min Rain = 0
KVP1 181057Z 23011KT 04/M01 A2984 RMK A01 T00361014  RH  070%=      5-min Rain = 0
KVP1 181058Z 23010KT 04/M01 A2984 RMK A01 T00361014  RH  070%=      5-min Rain = 0
KVP1 181059Z 22011KT 04/M01 A2984 RMK A01 T00361014  RH  070%=      5-min Rain = 0
KVP1 181100Z 23010KT 04/M01 A2983 RMK A01 T00361014  RH  070%=      5-min Rain = 0
KVP1 181101Z 23010KT 04/M01 A2983 RMK A01 T00361014  RH  070%=      5-min Rain = 0
KVP1 181102Z 22010KT 04/M02 A2983 RMK A01 T00351015  RH  070%=      5-min Rain = 0
KVP1 181103Z 22010KT 03/M02 A2983 RMK A01 T00341015  RH  070%=      5-min Rain = 0
KVP1 181104Z 22010KT 03/M02 A2983 RMK A01 T00341015  RH  070%=      5-min Rain = 0
KVP1 181105Z 22010KT 03/M02 A2983 RMK A01 T00341015  RH  070%=      5-min Rain = 0
KVP1 181106Z 23010KT 03/M02 A2983 RMK A01 T00331015  RH  071%=      5-min Rain = 0
KVP1 181107Z 23010KT 03/M02 A2983 RMK A01 T00331016  RH  071%=      5-min Rain = 0
KVP1 181108Z 22010KT 03/M02 A2983 RMK A01 T00321016  RH  071%=      5-min Rain = 0
KVP1 181109Z 23010KT 03/M02 A2983 RMK A01 T00311016  RH  071%=      5-min Rain = 0
KVP1 181110Z 22011KT 03/M02 A2983 RMK A01 T00311016  RH  071%=      5-min Rain = 0
KVP1 181111Z 22011KT 03/M02 A2983 RMK A01 T00311016  RH  071%=      5-min Rain = 0
KVP1 181112Z 22011KT 03/M02 A2983 RMK A01 T00321016  RH  071%=      5-min Rain = 0
KVP1 181113Z 22011KT 03/M02 A2983 RMK A01 T00311016  RH  071%=      5-min Rain = 0
KVP1 181114Z 22011KT 03/M02 A2982 RMK A01 T00321016  RH  071%=      5-min Rain = 0
KVP1 181115Z 22011KT 03/M02 A2982 RMK A01 T00321016  RH  071%=      5-min Rain = 0
KVP1 181116Z 22011KT 03/M02 A2982 RMK A01 T00331016  RH  071%=      5-min Rain = 0
KVP1 181117Z 22010KT 03/M02 A2982 RMK A01 T00331016  RH  070%=      5-min Rain = 0
KVP1 181118Z 22011KT 03/M02 A2982 RMK A01 T00331016  RH  070%=      5-min Rain = 0
KVP1 181119Z 22012KT 03/M02 A2982 RMK A01 T00331016  RH  070%=      5-min Rain = 0
KVP1 181120Z 22011KT 03/M02 A2982 RMK A01 T00341016  RH  070%=      5-min Rain = 0
KVP1 181121Z 22011KT 04/M02 A2981 RMK A01 T00351015  RH  070%=      5-min Rain = 0
KVP1 181122Z 22011KT 04/M02 A2981 RMK A01 T00351015  RH  070%=      5-min Rain = 0
KVP1 181123Z 22011KT 04/M02 A2981 RMK A01 T00351015  RH  069%=      5-min Rain = 0
KVP1 181124Z 22011KT 04/M02 A2981 RMK A01 T00351016  RH  069%=      5-min Rain = 0
KVP1 181125Z 22011KT 04/M02 A2981 RMK A01 T00361015  RH  069%=      5-min Rain = 0
KVP1 181126Z 22011KT 04/M02 A2981 RMK A01 T00361015  RH  069%=      5-min Rain = 0
KVP1 181127Z 22010KT 04/M02 A2981 RMK A01 T00361015  RH  069%=      5-min Rain = 0
KVP1 181128Z 22011KT 04/M02 A2981 RMK A01 T00371015  RH  069%=      5-min Rain = 0
KVP1 181129Z 22010KT 04/M02 A2981 RMK A01 T00371015  RH  069%=      5-min Rain = 0
KVP1 181130Z 22011KT 04/M02 A298 RMK A01 T00371015  RH  069%=      5-min Rain = 0
KVP1 181131Z 22010KT 04/M02 A298 RMK A01 T00371015  RH  068%=      5-min Rain = 0
KVP1 181132Z 22010KT 04/M02 A298 RMK A01 T00371015  RH  068%=      5-min Rain = 0
KVP1 181133Z 22010KT 04/M02 A298 RMK A01 T00381015  RH  068%=      5-min Rain = 0
KVP1 181134Z 21010KT 04/M02 A298 RMK A01 T00371015  RH  069%=      5-min Rain = 0
KVP1 181135Z 21010KT 04/M02 A298 RMK A01 T00371015  RH  069%=      5-min Rain = 0
KVP1 181136Z 21010KT 04/M02 A298 RMK A01 T00371015  RH  068%=      5-min Rain = 0
KVP1 181137Z 21010KT 04/M02 A298 RMK A01 T00381015  RH  068%=      5-min Rain = 0
KVP1 181138Z 21010KT 04/M02 A298 RMK A01 T00371015  RH  068%=      5-min Rain = 0
KVP1 181139Z 21010KT 04/M02 A298 RMK A01 T00371016  RH  068%=      5-min Rain = 0
KVP1 181140Z 21010KT 04/M02 A298 RMK A01 T00371016  RH  068%=      5-min Rain = 0
KVP1 181141Z 21010KT 04/M02 A2979 RMK A01 T00371015  RH  068%=      5-min Rain = 0
KVP1 181142Z 21010KT 04/M02 A2979 RMK A01 T00371016  RH  068%=      5-min Rain = 0
KVP1 181143Z 22010KT 04/M02 A2979 RMK A01 T00371016  RH  068%=      5-min Rain = 0
KVP1 181144Z 22009KT 04/M02 A2979 RMK A01 T00371016  RH  068%=      5-min Rain = 0
KVP1 181145Z 22009KT 04/M02 A2979 RMK A01 T00371016  RH  068%=      5-min Rain = 0
KVP1 181146Z 22009KT 04/M02 A2979 RMK A01 T00381016  RH  068%=      5-min Rain = 0
KVP1 181147Z 22010KT 04/M02 A2979 RMK A01 T00381016  RH  068%=      5-min Rain = 0
KVP1 181148Z 22010KT 04/M02 A2979 RMK A01 T00381016  RH  068%=      5-min Rain = 0
KVP1 181149Z 22010KT 04/M02 A2979 RMK A01 T00381016  RH  068%=      5-min Rain = 0
KVP1 181150Z 22010KT 04/M02 A2979 RMK A01 T00381016  RH  068%=      5-min Rain = 0
KVP1 181151Z 23010KT 04/M02 A2979 RMK A01 T00391016  RH  068%=      5-min Rain = 0
KVP1 181152Z 23009KT 04/M02 A2979 RMK A01 T00391015  RH  067%=      5-min Rain = 0
KVP1 181153Z 22010KT 04/M02 A2979 RMK A01 T00401015  RH  067%=      5-min Rain = 0
KVP1 181154Z 22010KT 04/M02 A2979 RMK A01 T00401015  RH  067%=      5-min Rain = 0
KVP1 181155Z 22010KT 04/M02 A2979 RMK A01 T00421015  RH  067%=      5-min Rain = 0
KVP1 181156Z 23011KT 04/M02 A2979 RMK A01 T00431015  RH  066%=      5-min Rain = 0
KVP1 181157Z 23011KT 04/M01 A2979 RMK A01 T00441014  RH  066%=      5-min Rain = 0
KVP1 181158Z 22011KT 05/M01 A2979 RMK A01 T00451014  RH  066%=      5-min Rain = 0
KVP1 181159Z 22011KT 05/M01 A2979 RMK A01 T00461014  RH  065%=      5-min Rain = 0
KVP1 181200Z 22011KT 05/M01 A2979 RMK A01 T00481014  RH  064%=      5-min Rain = 0
KVP1 181201Z 23011KT 05/M01 A2978 RMK A01 T00491014  RH  064%=      5-min Rain = 0
KVP1 181202Z 22011KT 05/M01 A2978 RMK A01 T00501014  RH  064%=      5-min Rain = 0
KVP1 181203Z 22011KT 05/M01 A2978 RMK A01 T00501013  RH  063%=      5-min Rain = 0
KVP1 181204Z 22010KT 05/M01 A2978 RMK A01 T00511013  RH  063%=      5-min Rain = 0
KVP1 181205Z 22010KT 05/M01 A2978 RMK A01 T00521013  RH  063%=      5-min Rain = 0
KVP1 181206Z 23010KT 05/M01 A2978 RMK A01 T00521013  RH  063%=      5-min Rain = 0
KVP1 181207Z 23010KT 05/M01 A2978 RMK A01 T00521013  RH  063%=      5-min Rain = 0
KVP1 181208Z 24010KT 05/M01 A2979 RMK A01 T00531013  RH  062%=      5-min Rain = 0
KVP1 181209Z 23011KT 05/M01 A2979 RMK A01 T00531013  RH  062%=      5-min Rain = 0
KVP1 181210Z 24010KT 05/M01 A2979 RMK A01 T00531013  RH  062%=      5-min Rain = 0
KVP1 181211Z 24010KT 05/M01 A2978 RMK A01 T00541013  RH  062%=      5-min Rain = 0
KVP1 181212Z 23010KT 05/M01 A2978 RMK A01 T00541013  RH  062%=      5-min Rain = 0
KVP1 181213Z 23011KT 06/M01 A2978 RMK A01 T00551013  RH  061%=      5-min Rain = 0
KVP1 181214Z 24012KT 06/M01 A2978 RMK A01 T00561013  RH  061%=      5-min Rain = 0
KVP1 181215Z 23010KT 06/M01 A2978 RMK A01 T00571013  RH  061%=      5-min Rain = 0
KVP1 181216Z 23011KT 06/M01 A2978 RMK A01 T00571013  RH  061%=      5-min Rain = 0
KVP1 181217Z 23011KT 06/M01 A2978 RMK A01 T00571013  RH  060%=      5-min Rain = 0
KVP1 181218Z 23012KT 06/M01 A2978 RMK A01 T00581014  RH  060%=      5-min Rain = 0
KVP1 181219Z 23012KT 06/M01 A2978 RMK A01 T00591014  RH  060%=      5-min Rain = 0
KVP1 181220Z 23012KT 06/M01 A2978 RMK A01 T00601013  RH  059%=      5-min Rain = 0
KVP1 181221Z 23013KT 06/M01 A2978 RMK A01 T00601014  RH  059%=      5-min Rain = 0
KVP1 181222Z 23012KT 06/M01 A2978 RMK A01 T00621014  RH  058%=      5-min Rain = 0
KVP1 181223Z 23012KT 06/M01 A2978 RMK A01 T00621014  RH  058%=      5-min Rain = 0
KVP1 181224Z 24012KT 06/M01 A2979 RMK A01 T00621014  RH  058%=      5-min Rain = 0
KVP1 181225Z 24013KT 06/M01 A2979 RMK A01 T00621014  RH  058%=      5-min Rain = 0
KVP1 181226Z 24012KT 06/M01 A2978 RMK A01 T00621014  RH  058%=      5-min Rain = 0
KVP1 181227Z 24012KT 06/M02 A2978 RMK A01 T00611015  RH  058%=      5-min Rain = 0
KVP1 181228Z 24012KT 06/M01 A2978 RMK A01 T00621014  RH  058%=      5-min Rain = 0
KVP1 181229Z 24013KT 06/M02 A2979 RMK A01 T00611015  RH  058%=      5-min Rain = 0
KVP1 181230Z 24012KT 06/M02 A2979 RMK A01 T00611015  RH  058%=      5-min Rain = 0
KVP1 181231Z 24013KT 06/M02 A2978 RMK A01 T00611015  RH  058%=      5-min Rain = 0
KVP1 181232Z 24013KT 06/M02 A2978 RMK A01 T00611015  RH  058%=      5-min Rain = 0
KVP1 181233Z 24012KT 06/M02 A2979 RMK A01 T00621015  RH  058%=      5-min Rain = 0
KVP1 181234Z 24013KT 06/M02 A2979 RMK A01 T00621015  RH  058%=      5-min Rain = 0
KVP1 181235Z 24013KT 06/M02 A2979 RMK A01 T00621015  RH  058%=      5-min Rain = 0
KVP1 181236Z 24013KT 06/M02 A2979 RMK A01 T00621015  RH  058%=      5-min Rain = 0
KVP1 181237Z 24012KT 06/M02 A2979 RMK A01 T00611015  RH  058%=      5-min Rain = 0
KVP1 181238Z 24012KT 06/M02 A2979 RMK A01 T00611015  RH  058%=      5-min Rain = 0
KVP1 181239Z 24011KT 06/M02 A2979 RMK A01 T00601015  RH  059%=      5-min Rain = 0
KVP1 181240Z 24011KT 06/M02 A2979 RMK A01 T00581015  RH  059%=      5-min Rain = 0
KVP1 181241Z 24012KT 06/M02 A2979 RMK A01 T00581015  RH  060%=      5-min Rain = 0
KVP1 181242Z 24011KT 06/M01 A2979 RMK A01 T00581014  RH  060%=      5-min Rain = 0
KVP1 181243Z 24011KT 06/M02 A2979 RMK A01 T00571015  RH  060%=      5-min Rain = 0
KVP1 181244Z 24011KT 06/M02 A2979 RMK A01 T00571015  RH  060%=      5-min Rain = 0
KVP1 181245Z 24012KT 06/M02 A2979 RMK A01 T00571015  RH  060%=      5-min Rain = 0
KVP1 181246Z 24012KT 06/M02 A2979 RMK A01 T00571015  RH  060%=      5-min Rain = 0
KVP1 181247Z 24014KT 06/M02 A2979 RMK A01 T00581015  RH  059%=      5-min Rain = 0
KVP1 181248Z 24014KT 06/M02 A2979 RMK A01 T00601015  RH  059%=      5-min Rain = 0
KVP1 181249Z 24015KT 06/M02 A2979 RMK A01 T00621015  RH  058%=      5-min Rain = 0
KVP1 181250Z 24013KT 06/M02 A2979 RMK A01 T00631015  RH  057%=      5-min Rain = 0
KVP1 181251Z 24014KT 06/M02 A2979 RMK A01 T00641015  RH  057%=      5-min Rain = 0
KVP1 181252Z 24014KT 07/M02 A2979 RMK A01 T00651015  RH  057%=      5-min Rain = 0
KVP1 181253Z 24013KT 07/M02 A2979 RMK A01 T00651015  RH  056%=      5-min Rain = 0
KVP1 181254Z 24012KT 07/M02 A2979 RMK A01 T00651016  RH  056%=      5-min Rain = 0
KVP1 181255Z 24013KT 07/M02 A2979 RMK A01 T00651015  RH  056%=      5-min Rain = 0
KVP1 181256Z 24013KT 06/M02 A2978 RMK A01 T00641016  RH  057%=      5-min Rain = 0
KVP1 181257Z 24013KT 06/M02 A2978 RMK A01 T00641016  RH  057%=      5-min Rain = 0
KVP1 181258Z 24014KT 06/M02 A2978 RMK A01 T00641016  RH  056%=      5-min Rain = 0
KVP1 181259Z 24014KT 07/M02 A2978 RMK A01 T00651016  RH  056%=      5-min Rain = 0
KVP1 181300Z 24014KT 07/M02 A2978 RMK A01 T00671016  RH  056%=      5-min Rain = 0
KVP1 181301Z 24016KT 07/M02 A2978 RMK A01 T00671016  RH  055%=      5-min Rain = 0
KVP1 181302Z 24015KT 07/M02 A2978 RMK A01 T00681016  RH  055%=      5-min Rain = 0
KVP1 181303Z 24015KT 07/M02 A2978 RMK A01 T00681016  RH  055%=      5-min Rain = 0
KVP1 181304Z 24014KT 07/M02 A2978 RMK A01 T00681016  RH  055%=      5-min Rain = 0
KVP1 181305Z 24014KT 07/M02 A2978 RMK A01 T00681016  RH  055%=      5-min Rain = 0
KVP1 181306Z 24014KT 07/M02 A2977 RMK A01 T00681016  RH  055%=      5-min Rain = 0
KVP1 181307Z 24013KT 07/M02 A2978 RMK A01 T00681016  RH  055%=      5-min Rain = 0
KVP1 181308Z 24013KT 07/M02 A2978 RMK A01 T00681016  RH  055%=      5-min Rain = 0
KVP1 181309Z 24013KT 07/M02 A2978 RMK A01 T00681016  RH  055%=      5-min Rain = 0
KVP1 181310Z 24013KT 07/M02 A2978 RMK A01 T00681016  RH  055%=      5-min Rain = 0
KVP1 181311Z 24013KT 07/M02 A2978 RMK A01 T00681016  RH  055%=      5-min Rain = 0
KVP1 181312Z 23013KT 07/M02 A2978 RMK A01 T00681016  RH  055%=      5-min Rain = 0
KVP1 181313Z 24013KT 07/M02 A2978 RMK A01 T00681016  RH  055%=      5-min Rain = 0
KVP1 181314Z 23011KT 07/M02 A2978 RMK A01 T00671016  RH  055%=      5-min Rain = 0
KVP1 181315Z 24013KT 07/M02 A2978 RMK A01 T00671016  RH  055%=      5-min Rain = 0
KVP1 181316Z 23013KT 07/M02 A2978 RMK A01 T00661017  RH  055%=      5-min Rain = 0
KVP1 181317Z 24014KT 07/M02 A2978 RMK A01 T00661017  RH  055%=      5-min Rain = 0
KVP1 181318Z 24013KT 07/M02 A2978 RMK A01 T00671017  RH  055%=      5-min Rain = 0
KVP1 181319Z 24013KT 07/M02 A2978 RMK A01 T00681017  RH  055%=      5-min Rain = 0
KVP1 181320Z 23014KT 07/M02 A2978 RMK A01 T00681017  RH  055%=      5-min Rain = 0
KVP1 181321Z 23014KT 07/M02 A2978 RMK A01 T00691017  RH  055%=      5-min Rain = 0
KVP1 181322Z 23015KT 07/M02 A2977 RMK A01 T00701016  RH  054%=      5-min Rain = 0
KVP1 181323Z 23015KT 07/M02 A2977 RMK A01 T00711016  RH  054%=      5-min Rain = 0
KVP1 181324Z 23015KT 07/M02 A2978 RMK A01 T00731016  RH  053%=      5-min Rain = 0
KVP1 181325Z 23014KT 07/M02 A2978 RMK A01 T00741016  RH  053%=      5-min Rain = 0
KVP1 181326Z 23013KT 07/M02 A2978 RMK A01 T00741016  RH  053%=      5-min Rain = 0
KVP1 181327Z 23012KT 07/M02 A2978 RMK A01 T00741016  RH  053%=      5-min Rain = 0
KVP1 181328Z 23013KT 07/M02 A2978 RMK A01 T00721016  RH  053%=      5-min Rain = 0
KVP1 181329Z 23014KT 07/M02 A2978 RMK A01 T00721016  RH  053%=      5-min Rain = 0
KVP1 181330Z 23014KT 07/M02 A2978 RMK A01 T00721016  RH  053%=      5-min Rain = 0
KVP1 181331Z 23014KT 07/M02 A2978 RMK A01 T00731016  RH  053%=      5-min Rain = 0
KVP1 181332Z 23014KT 07/M02 A2978 RMK A01 T00731016  RH  053%=      5-min Rain = 0
KVP1 181333Z 23014KT 07/M02 A2978 RMK A01 T00741016  RH  053%=      5-min Rain = 0
KVP1 181334Z 23014KT 07/M02 A2978 RMK A01 T00741016  RH  053%=      5-min Rain = 0
KVP1 181335Z 23015KT 08/M02 A2977 RMK A01 T00751016  RH  052%=      5-min Rain = 0
KVP1 181336Z 23014KT 08/M02 A2977 RMK A01 T00761016  RH  052%=      5-min Rain = 0
KVP1 181337Z 23014KT 08/M02 A2977 RMK A01 T00761016  RH  052%=      5-min Rain = 0
KVP1 181338Z 23014KT 08/M02 A2977 RMK A01 T00761016  RH  052%=      5-min Rain = 0
KVP1 181339Z 23014KT 08/M02 A2977 RMK A01 T00761016  RH  052%=      5-min Rain = 0
KVP1 181340Z 23015KT 08/M02 A2977 RMK A01 T00761016  RH  052%=      5-min Rain = 0
KVP1 181341Z 23015KT 08/M02 A2977 RMK A01 T00771015  RH  052%=      5-min Rain = 0
KVP1 181342Z 23015KT 08/M02 A2977 RMK A01 T00771015  RH  052%=      5-min Rain = 0
KVP1 181343Z 23014KT 08/M02 A2977 RMK A01 T00781015  RH  052%=      5-min Rain = 0
KVP1 181344Z 24014KT 08/M02 A2977 RMK A01 T00781015  RH  052%=      5-min Rain = 0
KVP1 181345Z 24014KT 08/M02 A2977 RMK A01 T00781015  RH  052%=      5-min Rain = 0
KVP1 181346Z 23015KT 08/M02 A2977 RMK A01 T00781015  RH  052%=      5-min Rain = 0
KVP1 181347Z 23015KT 08/M02 A2977 RMK A01 T00771015  RH  052%=      5-min Rain = 0
KVP1 181348Z 23013KT 08/M02 A2977 RMK A01 T00781015  RH  052%=      5-min Rain = 0
KVP1 181349Z 23012KT 08/M02 A2977 RMK A01 T00781015  RH  052%=      5-min Rain = 0
KVP1 181350Z 23013KT 08/M01 A2977 RMK A01 T00771014  RH  052%=      5-min Rain = 0
KVP1 181351Z 23014KT 08/M01 A2977 RMK A01 T00771014  RH  052%=      5-min Rain = 0
KVP1 181352Z 23013KT 08/M01 A2977 RMK A01 T00771014  RH  053%=      5-min Rain = 0
KVP1 181353Z 23014KT 08/M01 A2977 RMK A01 T00771014  RH  052%=      5-min Rain = 0
KVP1 181354Z 23014KT 08/M01 A2977 RMK A01 T00781014  RH  052%=      5-min Rain = 0
KVP1 181355Z 23013KT 08/M01 A2977 RMK A01 T00781014  RH  052%=      5-min Rain = 0
KVP1 181356Z 23012KT 08/M01 A2977 RMK A01 T00771014  RH  052%=      5-min Rain = 0
KVP1 181357Z 23014KT 08/M01 A2977 RMK A01 T00781013  RH  053%=      5-min Rain = 0
KVP1 181358Z 23013KT 08/M01 A2977 RMK A01 T00781013  RH  053%=      5-min Rain = 0
KVP1 181359Z 24014KT 08/M01 A2977 RMK A01 T00791013  RH  052%=      5-min Rain = 0
KVP1 181400Z 24011KT 08/M01 A2977 RMK A01 T00791013  RH  052%=      5-min Rain = 0
KVP1 181401Z 24013KT 08/M01 A2977 RMK A01 T00791012  RH  052%=      5-min Rain = 0
KVP1 181402Z 24013KT 08/M01 A2977 RMK A01 T00791012  RH  052%=      5-min Rain = 0
KVP1 181403Z 24014KT 08/M01 A2977 RMK A01 T00801012  RH  052%=      5-min Rain = 0
KVP1 181404Z 24015KT 08/M01 A2977 RMK A01 T00811012  RH  052%=      5-min Rain = 0
KVP1 181405Z 24013KT 08/M01 A2977 RMK A01 T00821012  RH  052%=      5-min Rain = 0
KVP1 181406Z 24014KT 08/M01 A2976 RMK A01 T00821012  RH  052%=      5-min Rain = 0
KVP1 181407Z 24013KT 08/M01 A2976 RMK A01 T00821011  RH  052%=      5-min Rain = 0
KVP1 181408Z 23013KT 08/M01 A2976 RMK A01 T00831011  RH  052%=      5-min Rain = 0
KVP1 181409Z 23015KT 08/M01 A2976 RMK A01 T00831011  RH  051%=      5-min Rain = 0
KVP1 181410Z 23017KT 09/M01 A2976 RMK A01 T00851011  RH  051%=      5-min Rain = 0
KVP1 181411Z 23014KT 09/M01 A2976 RMK A01 T00861011  RH  051%=      5-min Rain = 0
KVP1 181412Z 23016KT 09/M01 A2976 RMK A01 T00871010  RH  050%=      5-min Rain = 0
KVP1 181413Z 24016KT 09/M01 A2976 RMK A01 T00871011  RH  050%=      5-min Rain = 0
KVP1 181414Z 24015KT 09/M01 A2977 RMK A01 T00891011  RH  050%=      5-min Rain = 0
KVP1 181415Z 24016KT 09/M01 A2977 RMK A01 T00901010  RH  049%=      5-min Rain = 0
KVP1 181416Z 23016KT 09/M01 A2977 RMK A01 T00911010  RH  049%=      5-min Rain = 0
KVP1 181417Z 23016KT 09/M01 A2977 RMK A01 T00921010  RH  049%=      5-min Rain = 0
KVP1 181418Z 23016KT 09/M01 A2977 RMK A01 T00931010  RH  049%=      5-min Rain = 0
KVP1 181419Z 23016KT 09/M01 A2976 RMK A01 T00931010  RH  048%=      5-min Rain = 0
KVP1 181420Z 23015KT 09/M01 A2976 RMK A01 T00941010  RH  048%=      5-min Rain = 0
KVP1 181421Z 23016KT 09/M01 A2976 RMK A01 T00931010  RH  048%=      5-min Rain = 0
KVP1 181422Z 23017KT 09/M01 A2976 RMK A01 T00941011  RH  048%=      5-min Rain = 0
KVP1 181423Z 23016KT 09/M01 A2976 RMK A01 T00941011  RH  048%=      5-min Rain = 0
KVP1 181424Z 23015KT 10/M01 A2976 RMK A01 T00951011  RH  048%=      5-min Rain = 0
KVP1 181425Z 23018KT 09/M01 A2976 RMK A01 T00941011  RH  048%=      5-min Rain = 0
KVP1 181426Z 23015KT 09/M01 A2976 RMK A01 T00941011  RH  048%=      5-min Rain = 0
KVP1 181427Z 24018KT 09/M01 A2976 RMK A01 T00941012  RH  048%=      5-min Rain = 0
KVP1 181428Z 24016KT 09/M01 A2976 RMK A01 T00941011  RH  048%=      5-min Rain = 0
KVP1 181429Z 23017KT 09/M01 A2976 RMK A01 T00941012  RH  048%=      5-min Rain = 0
KVP1 181430Z 24018KT 09/M01 A2976 RMK A01 T00931012  RH  048%=      5-min Rain = 0
KVP1 181431Z 24018KT 09/M01 A2976 RMK A01 T00931012  RH  048%=      5-min Rain = 0
KVP1 181432Z 24015KT 09/M01 A2976 RMK A01 T00931012  RH  048%=      5-min Rain = 0
KVP1 181433Z 24017KT 09/M01 A2976 RMK A01 T00921012  RH  048%=      5-min Rain = 0
KVP1 181434Z 24016KT 09/M01 A2976 RMK A01 T00921012  RH  048%=      5-min Rain = 0
KVP1 181435Z 24017KT 09/M01 A2976 RMK A01 T00921012  RH  048%=      5-min Rain = 0
KVP1 181436Z 24016KT 09/M01 A2976 RMK A01 T00911012  RH  048%=      5-min Rain = 0
KVP1 181437Z 25017KT 09/M01 A2976 RMK A01 T00911012  RH  048%=      5-min Rain = 0
KVP1 181438Z 24018KT 09/M01 A2976 RMK A01 T00911012  RH  048%=      5-min Rain = 0
KVP1 181439Z 24016KT 09/M01 A2976 RMK A01 T00911012  RH  048%=      5-min Rain = 0
KVP1 181440Z 25015KT 09/M01 A2977 RMK A01 T00911012  RH  048%=      5-min Rain = 0
KVP1 181441Z 25017KT 09/M01 A2977 RMK A01 T00911012  RH  048%=      5-min Rain = 0
KVP1 181442Z 25016KT 09/M01 A2977 RMK A01 T00911012  RH  048%=      5-min Rain = 0
KVP1 181443Z 25016KT 09/M01 A2977 RMK A01 T00911012  RH  048%=      5-min Rain = 0
KVP1 181444Z 25014KT 09/M01 A2977 RMK A01 T00921012  RH  048%=      5-min Rain = 0
KVP1 181445Z 25015KT 09/M01 A2977 RMK A01 T00921012  RH  048%=      5-min Rain = 0
KVP1 181446Z 25015KT 09/M01 A2977 RMK A01 T00911011  RH  049%=      5-min Rain = 0
KVP1 181447Z 25015KT 09/M01 A2977 RMK A01 T00931011  RH  048%=      5-min Rain = 0
KVP1 181448Z 25016KT 09/M01 A2977 RMK A01 T00941010  RH  048%=      5-min Rain = 0
KVP1 181449Z 25019KT 10/M01 A2977 RMK A01 T00951011  RH  047%=      5-min Rain = 0
KVP1 181450Z 25018KT 10/M01 A2977 RMK A01 T00971011  RH  047%=      5-min Rain = 0
KVP1 181451Z 25019KT 10/M01 A2977 RMK A01 T00991010  RH  046%=      5-min Rain = 0
KVP1 181452Z 24019KT 10/M01 A2978 RMK A01 T01001010  RH  046%=      5-min Rain = 0
KVP1 181453Z 24015G21KT 10/M01 A2978 RMK A01 T01011009  RH  046%=      5-min Rain = 0
KVP1 181454Z 24017KT 10/M01 A2978 RMK A01 T01021009  RH  046%=      5-min Rain = 0
KVP1 181455Z 23014KT 10/M01 A2978 RMK A01 T01021008  RH  046%=      5-min Rain = 0
KVP1 181456Z 24017KT 10/M01 A2977 RMK A01 T01011008  RH  046%=      5-min Rain = 0
KVP1 181457Z 25018KT 10/M01 A2977 RMK A01 T01011009  RH  046%=      5-min Rain = 0
KVP1 181458Z 25017KT 10/M01 A2977 RMK A01 T01011010  RH  046%=      5-min Rain = 0
KVP1 181459Z 25019G24KT 10/M01 A2977 RMK A01 T01011009  RH  046%=      5-min Rain = 0
KVP1 181500Z 24019KT 10/M01 A2977 RMK A01 T01021009  RH  046%=      5-min Rain = 0
KVP1 181501Z 25022KT 10/M01 A2977 RMK A01 T01031009  RH  046%=      5-min Rain = 0
KVP1 181502Z 24019KT 10/M01 A2978 RMK A01 T01041010  RH  045%=      5-min Rain = 0
KVP1 181503Z 24020KT 11/M01 A2977 RMK A01 T01051009  RH  045%=      5-min Rain = 0
KVP1 181504Z 24021KT 11/M01 A2977 RMK A01 T01051009  RH  045%=      5-min Rain = 0
KVP1 181505Z 25020KT 11/M01 A2977 RMK A01 T01061009  RH  045%=      5-min Rain = 0
KVP1 181506Z 24021KT 11/M01 A2977 RMK A01 T01071008  RH  045%=      5-min Rain = 0
KVP1 181507Z 25019KT 11/M01 A2977 RMK A01 T01081008  RH  045%=      5-min Rain = 0
KVP1 181508Z 24019KT 11/M01 A2977 RMK A01 T01081007  RH  045%=      5-min Rain = 0
KVP1 181509Z 24020KT 11/M01 A2977 RMK A01 T01091007  RH  045%=      5-min Rain = 0
KVP1 181510Z 24019KT 11/M01 A2977 RMK A01 T01091007  RH  045%=      5-min Rain = 0
KVP1 181511Z 25021KT 11/M01 A2977 RMK A01 T01091007  RH  045%=      5-min Rain = 0
KVP1 181512Z 25020KT 11/M01 A2977 RMK A01 T01091007  RH  044%=      5-min Rain = 0
KVP1 181513Z 25019KT 11/M01 A2977 RMK A01 T01101007  RH  044%=      5-min Rain = 0
KVP1 181514Z 25021KT 11/M01 A2977 RMK A01 T01101007  RH  044%=      5-min Rain = 0
KVP1 181515Z 25018KT 11/M01 A2977 RMK A01 T01111007  RH  044%=      5-min Rain = 0
KVP1 181516Z 25018KT 11/M01 A2977 RMK A01 T01111006  RH  044%=      5-min Rain = 0
KVP1 181517Z 25019KT 11/M01 A2977 RMK A01 T01111007  RH  044%=      5-min Rain = 0
KVP1 181518Z 25018G23KT 11/M01 A2977 RMK A01 T01111007  RH  044%=      5-min Rain = 0
KVP1 181519Z 26016KT 11/M01 A2977 RMK A01 T01111006  RH  044%=      5-min Rain = 0
KVP1 181520Z 26017KT 11/M01 A2977 RMK A01 T01111006  RH  044%=      5-min Rain = 0
KVP1 181521Z 26017G22KT 11/M01 A2977 RMK A01 T01101006  RH  044%=      5-min Rain = 0
KVP1 181522Z 26017KT 11/M01 A2977 RMK A01 T01111006  RH  044%=      5-min Rain = 0
KVP1 181523Z 26019KT 11/M01 A2977 RMK A01 T01101007  RH  044%=      5-min Rain = 0
KVP1 181524Z 25020KT 11/M01 A2977 RMK A01 T01111007  RH  044%=      5-min Rain = 0
KVP1 181525Z 26017KT 11/M01 A2977 RMK A01 T01121007  RH  044%=      5-min Rain = 0
KVP1 181526Z 26019KT 11/M01 A2976 RMK A01 T01131006  RH  044%=      5-min Rain = 0
KVP1 181527Z 26019KT 11/M01 A2976 RMK A01 T01131007  RH  044%=      5-min Rain = 0
KVP1 181528Z 26021KT 11/M01 A2976 RMK A01 T01141007  RH  043%=      5-min Rain = 0
KVP1 181529Z 26020G25KT 12/M01 A2976 RMK A01 T01151006  RH  043%=      5-min Rain = 0
KVP1 181530Z 26021KT 12/M01 A2976 RMK A01 T01171005  RH  043%=      5-min Rain = 0
KVP1 181531Z 25020G25KT 12/M01 A2976 RMK A01 T01181005  RH  043%=      5-min Rain = 0
KVP1 181532Z 26021G27KT 12/M00 A2976 RMK A01 T01211004  RH  042%=      5-min Rain = 0
KVP1 181533Z 26020KT 13/M00 A2976 RMK A01 T01251002  RH  042%=      5-min Rain = 0
KVP1 181534Z 26020G26KT 13/M00 A2976 RMK A01 T01281001  RH  041%=      5-min Rain = 0
KVP1 181535Z 26023KT 13/M00 A2976 RMK A01 T01301003  RH  040%=      5-min Rain = 0
KVP1 181536Z 26020G26KT 13/M00 A2976 RMK A01 T01311002  RH  040%=      5-min Rain = 0
KVP1 181537Z 26024G29KT 13/M00 A2976 RMK A01 T01331003  RH  039%=      5-min Rain = 0
KVP1 181538Z 26025KT 13/M01 A2976 RMK A01 T01321005  RH  039%=      5-min Rain = 0
KVP1 181539Z 26026KT 13/M01 A2976 RMK A01 T01311006  RH  039%=      5-min Rain = 0
KVP1 181540Z 26025KT 13/M01 A2976 RMK A01 T01311005  RH  039%=      5-min Rain = 0
KVP1 181541Z 27022KT 13/M00 A2976 RMK A01 T01321004  RH  039%=      5-min Rain = 0
KVP1 181542Z 27025KT 13/M00 A2976 RMK A01 T01341004  RH  039%=      5-min Rain = 0
KVP1 181543Z 26021G26KT 13/M00 A2976 RMK A01 T01341004  RH  039%=      5-min Rain = 0
KVP1 181544Z 26025G33KT 14/M00 A2976 RMK A01 T01361002  RH  039%=      5-min Rain = 0
KVP1 181545Z 26021G28KT 14/M00 A2976 RMK A01 T01361004  RH  038%=      5-min Rain = 0
KVP1 181546Z 26022G27KT 14/M00 A2976 RMK A01 T01351003  RH  039%=      5-min Rain = 0
KVP1 181547Z 26022G27KT 13/M00 A2976 RMK A01 T01341003  RH  039%=      5-min Rain = 0
KVP1 181548Z 26021KT 13/M00 A2976 RMK A01 T01331003  RH  039%=      5-min Rain = 0
KVP1 181549Z 26019KT 13/M00 A2976 RMK A01 T01331002  RH  039%=      5-min Rain = 0
KVP1 181550Z 26019KT 13/M00 A2976 RMK A01 T01331001  RH  040%=      5-min Rain = 0
KVP1 181551Z 25020G27KT 13/M00 A2976 RMK A01 T01331001  RH  040%=      5-min Rain = 0
KVP1 181552Z 25023KT 13/M00 A2975 RMK A01 T01321002  RH  040%=      5-min Rain = 0
KVP1 181553Z 26020G25KT 13/M00 A2975 RMK A01 T01301002  RH  040%=      5-min Rain = 0
KVP1 181554Z 26023KT 13/M00 A2975 RMK A01 T01301002  RH  040%=      5-min Rain = 0
KVP1 181555Z 26023G28KT 13/M00 A2975 RMK A01 T01291002  RH  040%=      5-min Rain = 0
KVP1 181556Z 26024KT 13/M00 A2975 RMK A01 T01281003  RH  040%=      5-min Rain = 0
KVP1 181557Z 26025KT 13/M00 A2975 RMK A01 T01281003  RH  040%=      5-min Rain = 0
KVP1 181558Z 26020KT 13/M00 A2975 RMK A01 T01271003  RH  041%=      5-min Rain = 0
KVP1 181559Z 26021G28KT 13/M00 A2975 RMK A01 T01281002  RH  041%=      5-min Rain = 0
KVP1 181600Z 26022G29KT 13/M00 A2975 RMK A01 T01281002  RH  041%=      5-min Rain = 0
KVP1 181601Z 26023KT 13/M00 A2975 RMK A01 T01291003  RH  040%=      5-min Rain = 0
KVP1 181602Z 26020G25KT 13/M00 A2975 RMK A01 T01291002  RH  040%=      5-min Rain = 0
KVP1 181603Z 26022KT 13/M00 A2975 RMK A01 T01301001  RH  040%=      5-min Rain = 0
KVP1 181604Z 26019KT 13/00 A2975 RMK A01 T01330001  RH  040%=      5-min Rain = 0
KVP1 181605Z 26022KT 13/00 A2975 RMK A01 T01340001  RH  040%=      5-min Rain = 0
KVP1 181606Z 26022G29KT 14/00 A2975 RMK A01 T01350001  RH  040%=      5-min Rain = 0
KVP1 181607Z 26027G33KT 14/00 A2974 RMK A01 T01360002  RH  040%=      5-min Rain = 0
KVP1 181608Z 26029KT 14/00 A2974 RMK A01 T01370003  RH  040%=      5-min Rain = 0
KVP1 181609Z 26023KT 14/00 A2974 RMK A01 T01380004  RH  040%=      5-min Rain = 0
KVP1 181610Z 26024G29KT 14/01 A2974 RMK A01 T01400007  RH  040%=      5-min Rain = 0
KVP1 181611Z 27021G26KT 14/01 A2974 RMK A01 T01420007  RH  040%=      5-min Rain = 0
KVP1 181612Z 27025G31KT 14/01 A2974 RMK A01 T01430008  RH  040%=      5-min Rain = 0
KVP1 181613Z 26024KT 14/01 A2974 RMK A01 T01430007  RH  040%=      5-min Rain = 0
KVP1 181614Z 26027G33KT 14/01 A2974 RMK A01 T01430008  RH  040%=      5-min Rain = 0
KVP1 181615Z 26025G33KT 14/01 A2974 RMK A01 T01430009  RH  040%=      5-min Rain = 0
KVP1 181616Z 26026G32KT 14/01 A2974 RMK A01 T01440010  RH  040%=      5-min Rain = 0
KVP1 181617Z 26030G38KT 15/01 A2974 RMK A01 T01450009  RH  040%=      5-min Rain = 0
KVP1 181618Z 26027KT 15/01 A2974 RMK A01 T01460009  RH  039%=      5-min Rain = 0
KVP1 181619Z 26028G34KT 15/01 A2974 RMK A01 T01470010  RH  039%=      5-min Rain = 0
KVP1 181620Z 26026G33KT 15/01 A2975 RMK A01 T01480010  RH  039%=      5-min Rain = 0
KVP1 181621Z 26031G37KT 15/01 A2974 RMK A01 T01490010  RH  039%=      5-min Rain = 0
KVP1 181622Z 26025G30KT 15/01 A2974 RMK A01 T01490009  RH  039%=      5-min Rain = 0
KVP1 181623Z 26029G34KT 15/01 A2974 RMK A01 T01490010  RH  039%=      5-min Rain = 0
KVP1 181624Z 26023G28KT 15/01 A2974 RMK A01 T01490009  RH  039%=      5-min Rain = 0
KVP1 181625Z 26025G32KT 15/01 A2974 RMK A01 T01510011  RH  039%=      5-min Rain = 0
KVP1 181626Z 26027G34KT 15/01 A2974 RMK A01 T01520010  RH  038%=      5-min Rain = 0
KVP1 181627Z 26028KT 15/01 A2974 RMK A01 T01520010  RH  038%=      5-min Rain = 0
KVP1 181628Z 26025G30KT 15/01 A2974 RMK A01 T01510010  RH  038%=      5-min Rain = 0
KVP1 181629Z 26028G33KT 15/01 A2974 RMK A01 T01520010  RH  038%=      5-min Rain = 0
KVP1 181630Z 26024G31KT 15/01 A2974 RMK A01 T01520011  RH  038%=      5-min Rain = 0
KVP1 181631Z 26028G33KT 15/01 A2973 RMK A01 T01530011  RH  038%=      5-min Rain = 0
KVP1 181632Z 26031G36KT 15/01 A2973 RMK A01 T01520010  RH  038%=      5-min Rain = 0
KVP1 181633Z 26027G33KT 15/01 A2973 RMK A01 T01510011  RH  038%=      5-min Rain = 0
KVP1 181634Z 26029G36KT 15/01 A2973 RMK A01 T01520012  RH  039%=      5-min Rain = 0
KVP1 181635Z 26027G32KT 15/01 A2973 RMK A01 T01540013  RH  038%=      5-min Rain = 0
KVP1 181636Z 26028G33KT 15/01 A2973 RMK A01 T01540013  RH  038%=      5-min Rain = 0
KVP1 181637Z 26026G33KT 16/01 A2973 RMK A01 T01550013  RH  038%=      5-min Rain = 0
KVP1 181638Z 26027G32KT 16/01 A2973 RMK A01 T01550013  RH  038%=      5-min Rain = 0
KVP1 181639Z 26029G36KT 16/02 A2973 RMK A01 T01570015  RH  038%=      5-min Rain = 0
KVP1 181640Z 26028G35KT 16/02 A2973 RMK A01 T01580015  RH  038%=      5-min Rain = 0
KVP1 181641Z 26031G38KT 16/02 A2973 RMK A01 T01600016  RH  038%=      5-min Rain = 0
KVP1 181642Z 26031G36KT 16/02 A2973 RMK A01 T01600015  RH  038%=      5-min Rain = 0
KVP1 181643Z 26032G37KT 16/02 A2973 RMK A01 T01600016  RH  038%=      5-min Rain = 0
KVP1 181644Z 25027G32KT 16/02 A2973 RMK A01 T01610016  RH  037%=      5-min Rain = 0
KVP1 181645Z 26027G32KT 16/02 A2973 RMK A01 T01620016  RH  037%=      5-min Rain = 0
KVP1 181646Z 26026G34KT 16/02 A2973 RMK A01 T01600015  RH  037%=      5-min Rain = 0
KVP1 181647Z 26027G34KT 16/02 A2973 RMK A01 T01580015  RH  038%=      5-min Rain = 0
KVP1 181648Z 26029KT 16/02 A2973 RMK A01 T01570015  RH  038%=      5-min Rain = 0
KVP1 181649Z 26030G36KT 16/02 A2973 RMK A01 T01570015  RH  038%=      5-min Rain = 0
KVP1 181650Z 26029G35KT 16/02 A2973 RMK A01 T01570015  RH  038%=      5-min Rain = 0
KVP1 181651Z 26034G40KT 16/02 A2973 RMK A01 T01580016  RH  038%=      5-min Rain = 0
KVP1 181652Z 26032KT 16/02 A2973 RMK A01 T01590016  RH  038%=      5-min Rain = 0
KVP1 181653Z 26028G34KT 16/02 A2973 RMK A01 T01600016  RH  038%=      5-min Rain = 0
KVP1 181654Z 26031KT 16/02 A2972 RMK A01 T01590017  RH  038%=      5-min Rain = 0
KVP1 181655Z 26028G35KT 16/02 A2973 RMK A01 T01580017  RH  038%=      5-min Rain = 0
KVP1 181656Z 26031G37KT 16/02 A2972 RMK A01 T01580017  RH  038%=      5-min Rain = 0
KVP1 181657Z 26032G39KT 16/02 A2972 RMK A01 T01600018  RH  038%=      5-min Rain = 0
KVP1 181658Z 26032G39KT 16/02 A2972 RMK A01 T01620018  RH  038%=      5-min Rain = 0
KVP1 181659Z 26025KT 16/02 A2972 RMK A01 T01630019  RH  038%=      5-min Rain = 0
KVP1 181700Z 26029G34KT 17/02 A2972 RMK A01 T01670021  RH  037%=      5-min Rain = 0
KVP1 181701Z 26023G29KT 17/02 A2972 RMK A01 T01670019  RH  037%=      5-min Rain = 0
KVP1 181702Z 25029G42KT 17/02 A2972 RMK A01 T01690021  RH  037%=      5-min Rain = 0
KVP1 181703Z 26037G45KT 17/02 A2971 RMK A01 T01700019  RH  036%=      5-min Rain = 0
KVP1 181704Z 26032G37KT 17/02 A2971 RMK A01 T01670018  RH  037%=      5-min Rain = 0
KVP1 181705Z 26031G38KT 17/02 A2971 RMK A01 T01660019  RH  037%=      5-min Rain = 0
KVP1 181706Z 26029G36KT 17/02 A2971 RMK A01 T01670019  RH  037%=      5-min Rain = 0
KVP1 181707Z 26029G37KT 17/02 A2971 RMK A01 T01680020  RH  037%=      5-min Rain = 0
KVP1 181708Z 26030KT 17/02 A2971 RMK A01 T01700020  RH  036%=      5-min Rain = 0
KVP1 181709Z 26031G36KT 17/02 A2971 RMK A01 T01700019  RH  036%=      5-min Rain = 0
KVP1 181710Z 26030G35KT 17/02 A2971 RMK A01 T01690019  RH  036%=      5-min Rain = 0
KVP1 181711Z 25030G36KT 17/02 A2971 RMK A01 T01690019  RH  036%=      5-min Rain = 0
KVP1 181712Z 25030G37KT 17/02 A2971 RMK A01 T01680019  RH  037%=      5-min Rain = 0
KVP1 181713Z 25029G36KT 17/02 A2971 RMK A01 T01680018  RH  036%=      5-min Rain = 0
KVP1 181714Z 26028G34KT 17/02 A2971 RMK A01 T01680019  RH  036%=      5-min Rain = 0
KVP1 181715Z 26028KT 17/02 A2971 RMK A01 T01690019  RH  037%=      5-min Rain = 0
KVP1 181716Z 26027G33KT 17/02 A2971 RMK A01 T01690019  RH  036%=      5-min Rain = 0
KVP1 181717Z 26028G33KT 17/02 A2971 RMK A01 T01690019  RH  036%=      5-min Rain = 0
KVP1 181718Z 26032G38KT 17/02 A2971 RMK A01 T01700019  RH  036%=      5-min Rain = 0
KVP1 181719Z 25028G33KT 17/02 A2971 RMK A01 T01690019  RH  036%=      5-min Rain = 0
KVP1 181720Z 25029KT 17/02 A2971 RMK A01 T01690020  RH  037%=      5-min Rain = 0
KVP1 181721Z 26030G37KT 17/02 A2971 RMK A01 T01700020  RH  036%=      5-min Rain = 0
KVP1 181722Z 26030G35KT 17/02 A2971 RMK A01 T01700019  RH  036%=      5-min Rain = 0
KVP1 181723Z 25028G34KT 17/02 A2971 RMK A01 T01700019  RH  036%=      5-min Rain = 0
KVP1 181724Z 26026G37KT 17/02 A2971 RMK A01 T01700019  RH  036%=      5-min Rain = 0
KVP1 181725Z 25027G33KT 17/02 A2971 RMK A01 T01710021  RH  036%=      5-min Rain = 0
KVP1 181726Z 25031G38KT 17/02 A2971 RMK A01 T01730020  RH  036%=      5-min Rain = 0
KVP1 181727Z 25032KT 17/02 A2971 RMK A01 T01720019  RH  036%=      5-min Rain = 0
KVP1 181728Z 26033KT 17/02 A2971 RMK A01 T01700019  RH  036%=      5-min Rain = 0
KVP1 181729Z 25028G34KT 17/02 A2971 RMK A01 T01690019  RH  036%=      5-min Rain = 0
KVP1 181730Z 25027G32KT 17/02 A2971 RMK A01 T01700020  RH  037%=      5-min Rain = 0
KVP1 181731Z 25029G35KT 17/02 A2971 RMK A01 T01720021  RH  036%=      5-min Rain = 0
KVP1 181732Z 25028KT 17/02 A297 RMK A01 T01720020  RH  036%=      5-min Rain = 0
KVP1 181733Z 26026G31KT 17/02 A297 RMK A01 T01720021  RH  036%=      5-min Rain = 0
KVP1 181734Z 25027G36KT 17/02 A297 RMK A01 T01740021  RH  036%=      5-min Rain = 0
KVP1 181735Z 26031G39KT 17/02 A297 RMK A01 T01740019  RH  035%=      5-min Rain = 0
KVP1 181736Z 25034KT 17/02 A297 RMK A01 T01720019  RH  036%=      5-min Rain = 0
KVP1 181737Z 25032G37KT 17/02 A2969 RMK A01 T01710019  RH  036%=      5-min Rain = 0
KVP1 181738Z 25032KT 17/02 A297 RMK A01 T01710018  RH  036%=      5-min Rain = 0
KVP1 181739Z 25029G37KT 17/02 A297 RMK A01 T01710019  RH  036%=      5-min Rain = 0
KVP1 181740Z 25030KT 17/02 A297 RMK A01 T01720019  RH  036%=      5-min Rain = 0
KVP1 181741Z 25031G42KT 17/02 A297 RMK A01 T01740020  RH  036%=      5-min Rain = 0
KVP1 181742Z 25032G38KT 17/02 A297 RMK A01 T01740019  RH  035%=      5-min Rain = 0
KVP1 181743Z 25032G40KT 17/02 A297 RMK A01 T01740019  RH  035%=      5-min Rain = 0
KVP1 181744Z 25029G35KT 17/02 A297 RMK A01 T01740019  RH  035%=      5-min Rain = 0
KVP1 181745Z 25032G40KT 17/02 A2969 RMK A01 T01740019  RH  035%=      5-min Rain = 0
KVP1 181746Z 25033G40KT 17/02 A2969 RMK A01 T01740019  RH  035%=      5-min Rain = 0
KVP1 181747Z 25034KT 18/02 A2969 RMK A01 T01750018  RH  035%=      5-min Rain = 0
KVP1 181748Z 25033G38KT 17/02 A2969 RMK A01 T01740018  RH  035%=      5-min Rain = 0
KVP1 181749Z 25030G35KT 17/02 A2969 RMK A01 T01740019  RH  035%=      5-min Rain = 0
KVP1 181750Z 26029G38KT 18/02 A2969 RMK A01 T01750020  RH  035%=      5-min Rain = 0
KVP1 181751Z 26029G35KT 18/02 A2969 RMK A01 T01760019  RH  035%=      5-min Rain = 0
KVP1 181752Z 26029G35KT 18/02 A2969 RMK A01 T01780021  RH  035%=      5-min Rain = 0
KVP1 181753Z 26030G39KT 18/02 A2969 RMK A01 T01790020  RH  035%=      5-min Rain = 0
KVP1 181754Z 25032G38KT 18/02 A2969 RMK A01 T01790021  RH  035%=      5-min Rain = 0
KVP1 181755Z 25031G39KT 18/02 A2969 RMK A01 T01800021  RH  035%=      5-min Rain = 0
KVP1 181756Z 26033G40KT 18/02 A2969 RMK A01 T01800020  RH  034%=      5-min Rain = 0
KVP1 181757Z 25035G40KT 18/02 A2969 RMK A01 T01780020  RH  035%=      5-min Rain = 0
KVP1 181758Z 26031G36KT 18/02 A2969 RMK A01 T01780020  RH  035%=      5-min Rain = 0
KVP1 181759Z 26037G43KT 18/02 A2968 RMK A01 T01770019  RH  035%=      5-min Rain = 0
KVP1 181800Z 26034G40KT 18/02 A2968 RMK A01 T01770019  RH  035%=      5-min Rain = 0
KVP1 181801Z 26033G38KT 18/02 A2968 RMK A01 T01770020  RH  035%=      5-min Rain = 0
KVP1 181802Z 26033G38KT 18/02 A2968 RMK A01 T01780019  RH  035%=      5-min Rain = 0
KVP1 181803Z 26035G40KT 18/02 A2968 RMK A01 T01780020  RH  035%=      5-min Rain = 0
KVP1 181804Z 25032KT 18/02 A2968 RMK A01 T01780020  RH  035%=      5-min Rain = 0
KVP1 181805Z 25029G39KT 18/02 A2968 RMK A01 T01790020  RH  035%=      5-min Rain = 0
KVP1 181806Z 25033G38KT 18/02 A2968 RMK A01 T01800019  RH  034%=      5-min Rain = 0
KVP1 181807Z 25033KT 18/02 A2968 RMK A01 T01780017  RH  034%=      5-min Rain = 0
KVP1 181808Z 25028G35KT 18/02 A2968 RMK A01 T01780018  RH  034%=      5-min Rain = 0
KVP1 181809Z 24033G40KT 18/02 A2967 RMK A01 T01800019  RH  034%=      5-min Rain = 0
KVP1 181810Z 25032G40KT 18/02 A2967 RMK A01 T01800018  RH  034%=      5-min Rain = 0
KVP1 181811Z 25028G38KT 18/02 A2967 RMK A01 T01800020  RH  034%=      5-min Rain = 0
KVP1 181812Z 25028G34KT 18/02 A2968 RMK A01 T01830020  RH  034%=      5-min Rain = 0
KVP1 181813Z 25028G34KT 18/02 A2967 RMK A01 T01830019  RH  033%=      5-min Rain = 0
KVP1 181814Z 25028G36KT 18/02 A2967 RMK A01 T01840020  RH  033%=      5-min Rain = 0
KVP1 181815Z 26027G39KT 19/02 A2967 RMK A01 T01860021  RH  033%=      5-min Rain = 0
KVP1 181816Z 26032G40KT 19/02 A2967 RMK A01 T01860018  RH  032%=      5-min Rain = 0
KVP1 181817Z 26033KT 18/02 A2967 RMK A01 T01830016  RH  033%=      5-min Rain = 0
KVP1 181818Z 26031G36KT 18/02 A2967 RMK A01 T01800016  RH  033%=      5-min Rain = 0
KVP1 181819Z 26030G38KT 18/02 A2967 RMK A01 T01810016  RH  033%=      5-min Rain = 0
KVP1 181820Z 26030G38KT 18/02 A2966 RMK A01 T01800016  RH  033%=      5-min Rain = 0
KVP1 181821Z 26029G34KT 18/02 A2966 RMK A01 T01810017  RH  033%=      5-min Rain = 0
KVP1 181822Z 26032G37KT 18/02 A2966 RMK A01 T01810016  RH  033%=      5-min Rain = 0
KVP1 181823Z 26028KT 18/02 A2966 RMK A01 T01800016  RH  033%=      5-min Rain = 0
KVP1 181824Z 25026G36KT 18/02 A2966 RMK A01 T01830017  RH  033%=      5-min Rain = 0
KVP1 181825Z 25027KT 19/02 A2966 RMK A01 T01850016  RH  032%=      5-min Rain = 0
KVP1 181826Z 26025G30KT 19/02 A2966 RMK A01 T01860017  RH  032%=      5-min Rain = 0
KVP1 181827Z 26028KT 19/02 A2965 RMK A01 T01870015  RH  032%=      5-min Rain = 0
KVP1 181828Z 25027G35KT 19/02 A2966 RMK A01 T01860016  RH  032%=      5-min Rain = 0
KVP1 181829Z 26031G38KT 19/01 A2965 RMK A01 T01870014  RH  031%=      5-min Rain = 0
KVP1 181830Z 26028G33KT 19/01 A2966 RMK A01 T01850014  RH  032%=      5-min Rain = 0
KVP1 181831Z 26029G34KT 18/01 A2966 RMK A01 T01840014  RH  032%=      5-min Rain = 0
KVP1 181832Z 26031G37KT 19/01 A2965 RMK A01 T01850014  RH  032%=      5-min Rain = 0
KVP1 181833Z 27030G35KT 18/01 A2965 RMK A01 T01840013  RH  032%=      5-min Rain = 0
KVP1 181834Z 26034G41KT 18/01 A2965 RMK A01 T01830012  RH  032%=      5-min Rain = 0
KVP1 181835Z 27033G38KT 18/01 A2965 RMK A01 T01830011  RH  032%=      5-min Rain = 0
KVP1 181836Z 26027G33KT 18/01 A2965 RMK A01 T01830012  RH  032%=      5-min Rain = 0
KVP1 181837Z 26027G33KT 19/01 A2965 RMK A01 T01850014  RH  032%=      5-min Rain = 0
KVP1 181838Z 26032G38KT 19/01 A2965 RMK A01 T01860013  RH  031%=      5-min Rain = 0
KVP1 181839Z 25030G36KT 19/01 A2965 RMK A01 T01860012  RH  031%=      5-min Rain = 0
KVP1 181840Z 25030G36KT 19/01 A2965 RMK A01 T01870013  RH  031%=      5-min Rain = 0
KVP1 181841Z 25032KT 19/01 A2964 RMK A01 T01870011  RH  031%=      5-min Rain = 0
KVP1 181842Z 25030KT 19/01 A2964 RMK A01 T01870010  RH  030%=      5-min Rain = 0
KVP1 181843Z 26030G40KT 19/01 A2964 RMK A01 T01870008  RH  030%=      5-min Rain = 0
KVP1 181844Z 26029G36KT 19/01 A2964 RMK A01 T01870008  RH  030%=      5-min Rain = 0
KVP1 181845Z 26031G39KT 19/01 A2964 RMK A01 T01880007  RH  030%=      5-min Rain = 0
KVP1 181846Z 26030G39KT 19/00 A2964 RMK A01 T01880004  RH  029%=      5-min Rain = 0
KVP1 181847Z 26029G39KT 19/01 A2964 RMK A01 T01890005  RH  029%=      5-min Rain = 0
KVP1 181848Z 26032G37KT 19/01 A2964 RMK A01 T01890005  RH  029%=      5-min Rain = 0
KVP1 181849Z 26031G38KT 19/00 A2964 RMK A01 T01890003  RH  029%=      5-min Rain = 0
KVP1 181850Z 27031G37KT 19/00 A2964 RMK A01 T018900-0  RH  028%=      5-min Rain = 0
KVP1 181851Z 27033G38KT 19/M00 A2963 RMK A01 T01871002  RH  028%=      5-min Rain = 0
KVP1 181852Z 27034G40KT 19/M00 A2963 RMK A01 T01861004  RH  028%=      5-min Rain = 0
KVP1 181853Z 27032G38KT 19/M00 A2963 RMK A01 T01851001  RH  029%=      5-min Rain = 0
KVP1 181854Z 26037G43KT 19/00 A2963 RMK A01 T01850000  RH  029%=      5-min Rain = 0
KVP1 181855Z 26030G37KT 18/M00 A2963 RMK A01 T01841001  RH  029%=      5-min Rain = 0
KVP1 181856Z 27026KT 19/00 A2963 RMK A01 T01850000  RH  029%=      5-min Rain = 0
KVP1 181857Z 27024G33KT 19/00 A2964 RMK A01 T01890003  RH  029%=      5-min Rain = 0
KVP1 181858Z 27028G35KT 19/00 A2963 RMK A01 T01920003  RH  028%=      5-min Rain = 0
KVP1 181859Z 27029KT 19/00 A2963 RMK A01 T01910002  RH  028%=      5-min Rain = 0
KVP1 181900Z 27023KT 19/00 A2963 RMK A01 T01900003  RH  028%=      5-min Rain = 0
KVP1 181901Z 26024G32KT 19/00 A2963 RMK A01 T01930004  RH  028%=      5-min Rain = 0
KVP1 181902Z 26029G40KT 20/00 A2963 RMK A01 T01950002  RH  027%=      5-min Rain = 0
KVP1 181903Z 27029G36KT 19/00 A2963 RMK A01 T019400-0  RH  027%=      5-min Rain = 0
KVP1 181904Z 27027G32KT 19/00 A2963 RMK A01 T01920000  RH  028%=      5-min Rain = 0
KVP1 181905Z 27029G37KT 19/00 A2963 RMK A01 T01930002  RH  028%=      5-min Rain = 0
KVP1 181906Z 27032G37KT 19/00 A2963 RMK A01 T01930002  RH  028%=      5-min Rain = 0
KVP1 181907Z 27031G37KT 19/M00 A2963 RMK A01 T01911001  RH  028%=      5-min Rain = 0
KVP1 181908Z 27029G35KT 19/M00 A2963 RMK A01 T01891001  RH  028%=      5-min Rain = 0
KVP1 181909Z 27033KT 19/00 A2962 RMK A01 T01880001  RH  028%=      5-min Rain = 0
KVP1 181910Z 26034G39KT 19/M00 A2962 RMK A01 T01871001  RH  028%=      5-min Rain = 0
KVP1 181911Z 27030G38KT 19/M00 A2962 RMK A01 T01871002  RH  028%=      5-min Rain = 0
KVP1 181912Z 26031G39KT 19/00 A2962 RMK A01 T01870001  RH  028%=      5-min Rain = 0
KVP1 181913Z 26033G38KT 19/00 A2962 RMK A01 T01880002  RH  029%=      5-min Rain = 0
KVP1 181914Z 26030G35KT 19/00 A2962 RMK A01 T01870004  RH  029%=      5-min Rain = 0
KVP1 181915Z 26029G36KT 19/01 A2962 RMK A01 T01870005  RH  030%=      5-min Rain = 0
KVP1 181916Z 26033G39KT 19/01 A2962 RMK A01 T01880005  RH  029%=      5-min Rain = 0
KVP1 181917Z 26033G39KT 19/00 A2961 RMK A01 T01870004  RH  029%=      5-min Rain = 0
KVP1 181918Z 26031G39KT 19/00 A2962 RMK A01 T01860004  RH  029%=      5-min Rain = 0
KVP1 181919Z 27028KT 19/00 A2962 RMK A01 T01860003  RH  029%=      5-min Rain = 0
KVP1 181920Z 27029G35KT 19/00 A2962 RMK A01 T01860003  RH  029%=      5-min Rain = 0
KVP1 181921Z 26025G33KT 19/01 A2962 RMK A01 T01870006  RH  030%=      5-min Rain = 0
KVP1 181922Z 25029G37KT 19/01 A2962 RMK A01 T01900009  RH  030%=      5-min Rain = 0
KVP1 181923Z 25029G36KT 19/01 A2962 RMK A01 T01900007  RH  029%=      5-min Rain = 0
KVP1 181924Z 26033G38KT 19/01 A2962 RMK A01 T01890006  RH  029%=      5-min Rain = 0
KVP1 181925Z 26032G38KT 19/00 A2962 RMK A01 T01880002  RH  029%=      5-min Rain = 0
KVP1 181926Z 26032KT 19/M00 A2962 RMK A01 T01871001  RH  028%=      5-min Rain = 0
KVP1 181927Z 27029KT 19/M00 A2962 RMK A01 T01871002  RH  028%=      5-min Rain = 0
KVP1 181928Z 27027G33KT 19/00 A2962 RMK A01 T018800-0  RH  028%=      5-min Rain = 0
KVP1 181929Z 28028G34KT 19/00 A2962 RMK A01 T01880001  RH  028%=      5-min Rain = 0
KVP1 181930Z 27025G33KT 19/00 A2962 RMK A01 T01890003  RH  028%=      5-min Rain = 0
KVP1 181931Z 27031G37KT 19/00 A2962 RMK A01 T01910000  RH  028%=      5-min Rain = 0
KVP1 181932Z 28029G34KT 19/M00 A2962 RMK A01 T01901002  RH  027%=      5-min Rain = 0
KVP1 181933Z 27029G34KT 19/M00 A2962 RMK A01 T01881002  RH  028%=      5-min Rain = 0
KVP1 181934Z 27025G31KT 19/00 A2962 RMK A01 T018800-0  RH  028%=      5-min Rain = 0
KVP1 181935Z 27024KT 19/00 A2962 RMK A01 T01890003  RH  029%=      5-min Rain = 0
KVP1 181936Z 27023G33KT 19/01 A2962 RMK A01 T01920007  RH  029%=      5-min Rain = 0
KVP1 181937Z 27025G30KT 20/01 A2962 RMK A01 T01950008  RH  029%=      5-min Rain = 0
KVP1 181938Z 27025KT 19/01 A2961 RMK A01 T01940005  RH  028%=      5-min Rain = 0
KVP1 181939Z 26027G37KT 19/01 A2961 RMK A01 T01920005  RH  029%=      5-min Rain = 0
KVP1 181940Z 26030G36KT 19/00 A2961 RMK A01 T019300-0  RH  027%=      5-min Rain = 0
KVP1 181941Z 27030KT 19/M00 A2961 RMK A01 T01921001  RH  027%=      5-min Rain = 0
KVP1 181942Z 27029G36KT 19/M01 A2961 RMK A01 T01911005  RH  027%=      5-min Rain = 0
KVP1 181943Z 27028G34KT 19/M01 A2961 RMK A01 T01911007  RH  026%=      5-min Rain = 0
KVP1 181944Z 26029KT 19/M01 A2961 RMK A01 T01931008  RH  026%=      5-min Rain = 0
KVP1 181945Z 26030KT 19/M01 A2961 RMK A01 T01931009  RH  026%=      5-min Rain = 0
KVP1 181946Z 26031G36KT 19/M01 A2961 RMK A01 T01931011  RH  025%=      5-min Rain = 0
KVP1 181947Z 26029G35KT 19/M01 A2961 RMK A01 T01921013  RH  025%=      5-min Rain = 0
KVP1 181948Z 26030G35KT 19/M02 A2961 RMK A01 T01931017  RH  024%=      5-min Rain = 0
KVP1 181949Z 27027G32KT 20/M02 A2961 RMK A01 T01951016  RH  024%=      5-min Rain = 0
KVP1 181950Z 26028G34KT 20/M02 A296 RMK A01 T01961016  RH  024%=      5-min Rain = 0
KVP1 181951Z 26025G32KT 20/M01 A296 RMK A01 T01971014  RH  024%=      5-min Rain = 0
KVP1 181952Z 26023G30KT 20/M01 A296 RMK A01 T01991011  RH  024%=      5-min Rain = 0
KVP1 181953Z 25028KT 20/M01 A296 RMK A01 T02021010  RH  024%=      5-min Rain = 0
KVP1 181954Z 25032G37KT 20/M01 A296 RMK A01 T02031010  RH  024%=      5-min Rain = 0
KVP1 181955Z 26029G36KT 20/M01 A296 RMK A01 T02021012  RH  024%=      5-min Rain = 0
KVP1 181956Z 26029G35KT 20/M01 A296 RMK A01 T02021010  RH  024%=      5-min Rain = 0
KVP1 181957Z 26026G34KT 20/M01 A296 RMK A01 T02011011  RH  024%=      5-min Rain = 0
KVP1 181958Z 26025KT 20/M01 A296 RMK A01 T02001010  RH  024%=      5-min Rain = 0
KVP1 181959Z 27027G34KT 20/M01 A296 RMK A01 T02011011  RH  024%=      5-min Rain = 0
KVP1 182000Z 27023G31KT 20/M02 A296 RMK A01 T02021018  RH  023%=      5-min Rain = 0
KVP1 182001Z 28032G42KT 21/M03 A296 RMK A01 T02051029  RH  021%=      5-min Rain = 0
KVP1 182002Z 29032G40KT 21/M06 A296 RMK A01 T02051057  RH  017%=      5-min Rain = 0
KVP1 182003Z 29028G33KT 20/M06 A296 RMK A01 T02041059  RH  016%=      5-min Rain = 0
KVP1 182004Z 29027KT 20/M06 A296 RMK A01 T02041060  RH  016%=      5-min Rain = 0
KVP1 182005Z 29030G35KT 20/M06 A296 RMK A01 T02041058  RH  017%=      5-min Rain = 0
KVP1 182006Z 28024G29KT 20/M06 A2959 RMK A01 T02031056  RH  017%=      5-min Rain = 0
KVP1 182007Z 27023G28KT 20/M05 A296 RMK A01 T02011053  RH  018%=      5-min Rain = 0
KVP1 182008Z 27027G34KT 20/M05 A296 RMK A01 T02021051  RH  018%=      5-min Rain = 0
KVP1 182009Z 28026G36KT 20/M05 A296 RMK A01 T02001047  RH  018%=      5-min Rain = 0
KVP1 182010Z 28031G38KT 20/M05 A2959 RMK A01 T01991047  RH  019%=      5-min Rain = 0
KVP1 182011Z 27030KT 20/M05 A2959 RMK A01 T01961051  RH  018%=      5-min Rain = 0
KVP1 182012Z 27029G37KT 20/M05 A2959 RMK A01 T01951051  RH  019%=      5-min Rain = 0
KVP1 182013Z 26033G39KT 20/M06 A2959 RMK A01 T01951055  RH  018%=      5-min Rain = 0
KVP1 182014Z 28031G36KT 20/M06 A2959 RMK A01 T01951057  RH  018%=      5-min Rain = 0
KVP1 182015Z 28028G35KT 20/M06 A2959 RMK A01 T01961056  RH  018%=      5-min Rain = 0
KVP1 182016Z 29028G35KT 20/M06 A2959 RMK A01 T01961057  RH  018%=      5-min Rain = 0
KVP1 182017Z 28027G34KT 20/M05 A296 RMK A01 T01951047  RH  019%=      5-min Rain = 0
KVP1 182018Z 27022KT 19/M02 A2959 RMK A01 T01911017  RH  025%=      5-min Rain = 0
KVP1 182019Z 27023G28KT 19/M01 A2959 RMK A01 T01881011  RH  026%=      5-min Rain = 0
KVP1 182020Z 26026G33KT 19/M01 A2959 RMK A01 T01871009  RH  027%=      5-min Rain = 0
KVP1 182021Z 26026KT 19/M01 A2959 RMK A01 T01851008  RH  027%=      5-min Rain = 0
KVP1 182022Z 26023G29KT 18/M01 A2959 RMK A01 T01831008  RH  027%=      5-min Rain = 0
KVP1 182023Z 26026KT 18/M01 A296 RMK A01 T01831007  RH  028%=      5-min Rain = 0
KVP1 182024Z 26024KT 18/M01 A296 RMK A01 T01821008  RH  028%=      5-min Rain = 0
KVP1 182025Z 26025G32KT 18/M01 A296 RMK A01 T01821009  RH  027%=      5-min Rain = 0
KVP1 182026Z 26029G34KT 18/M01 A296 RMK A01 T01821011  RH  027%=      5-min Rain = 0
KVP1 182027Z 26026G31KT 18/M01 A296 RMK A01 T01811012  RH  027%=      5-min Rain = 0
KVP1 182028Z 26025G33KT 18/M01 A296 RMK A01 T01811013  RH  027%=      5-min Rain = 0
KVP1 182029Z 26021G32KT 18/M01 A296 RMK A01 T01811012  RH  027%=      5-min Rain = 0
KVP1 182030Z 26028KT 18/M01 A2959 RMK A01 T01811011  RH  027%=      5-min Rain = 0
KVP1 182031Z 26026G31KT 18/M01 A296 RMK A01 T01821012  RH  027%=      5-min Rain = 0
KVP1 182032Z 27024G33KT 18/M01 A296 RMK A01 T01821013  RH  027%=      5-min Rain = 0
KVP1 182033Z 27024G30KT 18/M02 A296 RMK A01 T01821018  RH  026%=      5-min Rain = 0
KVP1 182034Z 26027KT 18/M02 A2959 RMK A01 T01821020  RH  025%=      5-min Rain = 0
KVP1 182035Z 26027G32KT 18/M02 A2959 RMK A01 T01841019  RH  025%=      5-min Rain = 0
KVP1 182036Z 26023G29KT 19/M02 A2959 RMK A01 T01851019  RH  025%=      5-min Rain = 0
KVP1 182037Z 25023G31KT 19/M02 A2959 RMK A01 T01851018  RH  025%=      5-min Rain = 0
KVP1 182038Z 25024KT 18/M02 A2959 RMK A01 T01841018  RH  025%=      5-min Rain = 0
KVP1 182039Z 26027G33KT 18/M02 A2959 RMK A01 T01831016  RH  026%=      5-min Rain = 0
KVP1 182040Z 27028KT 18/M02 A2959 RMK A01 T01811016  RH  026%=      5-min Rain = 0
KVP1 182041Z 25026KT 18/M02 A2959 RMK A01 T01801015  RH  027%=      5-min Rain = 0
KVP1 182042Z 26022G30KT 18/M01 A2959 RMK A01 T01811012  RH  027%=      5-min Rain = 0
KVP1 182043Z 26026G31KT 18/M01 A296 RMK A01 T01841011  RH  027%=      5-min Rain = 0
KVP1 182044Z 26020KT 19/M01 A296 RMK A01 T01851012  RH  026%=      5-min Rain = 0
KVP1 182045Z 26027G34KT 19/M01 A296 RMK A01 T01861012  RH  026%=      5-min Rain = 0
KVP1 182046Z 26025G30KT 19/M01 A296 RMK A01 T01851014  RH  026%=      5-min Rain = 0
KVP1 182047Z 26026G33KT 19/M01 A296 RMK A01 T01861013  RH  026%=      5-min Rain = 0
KVP1 182048Z 26026KT 19/M01 A296 RMK A01 T01861012  RH  026%=      5-min Rain = 0
KVP1 182049Z 27024KT 18/M01 A296 RMK A01 T01831014  RH  026%=      5-min Rain = 0
KVP1 182050Z 27022KT 18/M01 A296 RMK A01 T01811014  RH  027%=      5-min Rain = 0
KVP1 182051Z 26023G32KT 18/M01 A296 RMK A01 T01811013  RH  027%=      5-min Rain = 0
KVP1 182052Z 26023G32KT 18/M01 A296 RMK A01 T01811013  RH  027%=      5-min Rain = 0
KVP1 182053Z 27027G35KT 18/M01 A296 RMK A01 T01831012  RH  027%=      5-min Rain = 0
KVP1 182054Z 26027G32KT 18/M01 A296 RMK A01 T01831013  RH  026%=      5-min Rain = 0
KVP1 182055Z 26025G30KT 18/M02 A296 RMK A01 T01831015  RH  026%=      5-min Rain = 0
KVP1 182056Z 26027KT 19/M02 A296 RMK A01 T01851015  RH  026%=      5-min Rain = 0
KVP1 182057Z 26026G33KT 19/M01 A296 RMK A01 T01881013  RH  026%=      5-min Rain = 0
KVP1 182058Z 27029KT 19/M01 A296 RMK A01 T01881014  RH  025%=      5-min Rain = 0
KVP1 182059Z 27023G29KT 19/M01 A296 RMK A01 T01851013  RH  026%=      5-min Rain = 0
KVP1 182100Z 27026G31KT 19/M01 A296 RMK A01 T01851013  RH  026%=      5-min Rain = 0
KVP1 182101Z 27027G32KT 18/M02 A296 RMK A01 T01841015  RH  026%=      5-min Rain = 0
KVP1 182102Z 27026KT 18/M01 A296 RMK A01 T01831014  RH  026%=      5-min Rain = 0
KVP1 182103Z 27023G28KT 19/M01 A296 RMK A01 T01851012  RH  026%=      5-min Rain = 0
KVP1 182104Z 27024G30KT 19/M01 A296 RMK A01 T01871011  RH  026%=      5-min Rain = 0
KVP1 182105Z 27024KT 19/M01 A296 RMK A01 T01891013  RH  025%=      5-min Rain = 0
KVP1 182106Z 27027KT 19/M01 A296 RMK A01 T01881013  RH  026%=      5-min Rain = 0
KVP1 182107Z 27025KT 19/M01 A296 RMK A01 T01871013  RH  026%=      5-min Rain = 0
KVP1 182108Z 27023KT 19/M01 A296 RMK A01 T01871012  RH  026%=      5-min Rain = 0
KVP1 182109Z 28025KT 19/M01 A296 RMK A01 T01861011  RH  026%=      5-min Rain = 0
KVP1 182110Z 27027KT 18/M01 A296 RMK A01 T01831012  RH  027%=      5-min Rain = 0
KVP1 182111Z 27025KT 18/M01 A296 RMK A01 T01801013  RH  027%=      5-min Rain = 0
KVP1 182112Z 26023G29KT 18/M01 A296 RMK A01 T01791011  RH  027%=      5-min Rain = 0
KVP1 182113Z 26019G25KT 18/M01 A296 RMK A01 T01781011  RH  028%=      5-min Rain = 0
KVP1 182114Z 26022KT 18/M01 A296 RMK A01 T01781009  RH  028%=      5-min Rain = 0
KVP1 182115Z 26027KT 18/M01 A296 RMK A01 T01761011  RH  028%=      5-min Rain = 0
KVP1 182116Z 26023G28KT 18/M01 A296 RMK A01 T01751012  RH  028%=      5-min Rain = 0
KVP1 182117Z 27023KT 18/M01 A296 RMK A01 T01751011  RH  028%=      5-min Rain = 0
KVP1 182118Z 27018KT 17/M01 A2961 RMK A01 T01741011  RH  028%=      5-min Rain = 0
KVP1 182119Z 27019G25KT 18/M01 A2961 RMK A01 T01751011  RH  028%=      5-min Rain = 0
KVP1 182120Z 27019KT 18/M01 A2961 RMK A01 T01751010  RH  028%=      5-min Rain = 0
KVP1 182121Z 27018KT 18/M01 A2961 RMK A01 T01761010  RH  028%=      5-min Rain = 0
KVP1 182122Z 27018KT 18/M01 A2961 RMK A01 T01761011  RH  028%=      5-min Rain = 0
KVP1 182123Z 27015G20KT 18/M01 A2961 RMK A01 T01771011  RH  028%=      5-min Rain = 0
KVP1 182124Z 27020G25KT 18/M01 A2961 RMK A01 T01781012  RH  027%=      5-min Rain = 0
KVP1 182125Z 27020KT 18/M01 A2961 RMK A01 T01781014  RH  027%=      5-min Rain = 0
KVP1 182126Z 27021G27KT 18/M02 A2961 RMK A01 T01781017  RH  026%=      5-min Rain = 0
KVP1 182127Z 28020KT 18/M02 A2961 RMK A01 T01791022  RH  025%=      5-min Rain = 0
KVP1 182128Z 27022KT 18/M03 A2961 RMK A01 T01801027  RH  024%=      5-min Rain = 0
KVP1 182129Z 28024G30KT 18/M03 A2961 RMK A01 T01811031  RH  024%=      5-min Rain = 0
KVP1 182130Z 27020KT 18/M03 A2961 RMK A01 T01811031  RH  023%=      5-min Rain = 0
KVP1 182131Z 27017G22KT 18/M03 A2961 RMK A01 T01801030  RH  024%=      5-min Rain = 0
KVP1 182132Z 27020G28KT 18/M03 A2961 RMK A01 T01821031  RH  023%=      5-min Rain = 0
KVP1 182133Z 28023KT 18/M04 A2961 RMK A01 T01821044  RH  021%=      5-min Rain = 0
KVP1 182134Z 28024KT 18/M06 A2961 RMK A01 T01811055  RH  020%=      5-min Rain = 0
KVP1 182135Z 28021G26KT 18/M06 A2961 RMK A01 T01811060  RH  019%=      5-min Rain = 0
KVP1 182136Z 28022KT 18/M06 A2961 RMK A01 T01811061  RH  019%=      5-min Rain = 0
KVP1 182137Z 28023G28KT 18/M06 A2961 RMK A01 T01811062  RH  018%=      5-min Rain = 0
KVP1 182138Z 28021KT 18/M06 A2961 RMK A01 T01811061  RH  019%=      5-min Rain = 0
KVP1 182139Z 28020KT 18/M06 A2961 RMK A01 T01801060  RH  019%=      5-min Rain = 0
KVP1 182140Z 28017KT 18/M06 A2961 RMK A01 T01791057  RH  019%=      5-min Rain = 0
KVP1 182141Z 28022G29KT 18/M05 A2961 RMK A01 T01801054  RH  020%=      5-min Rain = 0
KVP1 182142Z 27019KT 18/M05 A2961 RMK A01 T01791051  RH  020%=      5-min Rain = 0
KVP1 182143Z 28018KT 18/M05 A2961 RMK A01 T01781049  RH  021%=      5-min Rain = 0
KVP1 182144Z 27018KT 18/M05 A2961 RMK A01 T01781048  RH  021%=      5-min Rain = 0
KVP1 182145Z 27018G23KT 18/M05 A2961 RMK A01 T01781047  RH  021%=      5-min Rain = 0
KVP1 182146Z 28018KT 18/M05 A2961 RMK A01 T01791045  RH  021%=      5-min Rain = 0
KVP1 182147Z 28019KT 18/M04 A2961 RMK A01 T01801044  RH  021%=      5-min Rain = 0
KVP1 182148Z 28019KT 18/M04 A2961 RMK A01 T01801044  RH  021%=      5-min Rain = 0
KVP1 182149Z 28018KT 18/M05 A2961 RMK A01 T01801045  RH  021%=      5-min Rain = 0
KVP1 182150Z 28020KT 18/M05 A2961 RMK A01 T01801045  RH  021%=      5-min Rain = 0
KVP1 182151Z 28018G24KT 18/M05 A2961 RMK A01 T01801045  RH  021%=      5-min Rain = 0
KVP1 182152Z 27017KT 18/M04 A2961 RMK A01 T01801044  RH  021%=      5-min Rain = 0
KVP1 182153Z 27020G25KT 18/M04 A2961 RMK A01 T01801043  RH  022%=      5-min Rain = 0
KVP1 182154Z 28017G22KT 18/M04 A2961 RMK A01 T01811041  RH  022%=      5-min Rain = 0
KVP1 182155Z 28019G25KT 18/M04 A2961 RMK A01 T01811038  RH  022%=      5-min Rain = 0
KVP1 182156Z 28023KT 18/M04 A2961 RMK A01 T01811038  RH  022%=      5-min Rain = 0
KVP1 182157Z 27020G26KT 18/M04 A2962 RMK A01 T01791039  RH  022%=      5-min Rain = 0
KVP1 182158Z 27023KT 18/M04 A2962 RMK A01 T01781041  RH  022%=      5-min Rain = 0
KVP1 182159Z 27020KT 18/M04 A2962 RMK A01 T01761042  RH  022%=      5-min Rain = 0
KVP1 182200Z 28022KT 18/M04 A2962 RMK A01 T01751040  RH  023%=      5-min Rain = 0
KVP1 182201Z 28024KT 17/M04 A2962 RMK A01 T01741038  RH  023%=      5-min Rain = 0
KVP1 182202Z 28019KT 17/M04 A2962 RMK A01 T01721038  RH  024%=      5-min Rain = 0
KVP1 182203Z 28020KT 17/M04 A2962 RMK A01 T01711037  RH  024%=      5-min Rain = 0
KVP1 182204Z 28019KT 17/M04 A2962 RMK A01 T01701038  RH  024%=      5-min Rain = 0
KVP1 182205Z 29015KT 17/M04 A2962 RMK A01 T01691038  RH  024%=      5-min Rain = 0
KVP1 182206Z 29016KT 17/M04 A2962 RMK A01 T01681037  RH  024%=      5-min Rain = 0
KVP1 182207Z 29015KT 17/M04 A2962 RMK A01 T01681037  RH  024%=      5-min Rain = 0
KVP1 182208Z 29017KT 17/M04 A2962 RMK A01 T01671036  RH  025%=      5-min Rain = 0
KVP1 182209Z 29015KT 17/M04 A2962 RMK A01 T01661037  RH  025%=      5-min Rain = 0
KVP1 182210Z 29015KT 17/M04 A2962 RMK A01 T01661037  RH  025%=      5-min Rain = 0
KVP1 182211Z 29013KT 17/M04 A2962 RMK A01 T01651036  RH  025%=      5-min Rain = 0
KVP1 182212Z 29014KT 17/M04 A2962 RMK A01 T01651036  RH  025%=      5-min Rain = 0
KVP1 182213Z 29013KT 17/M04 A2962 RMK A01 T01651036  RH  025%=      5-min Rain = 0
KVP1 182214Z 29015KT 16/M04 A2962 RMK A01 T01641036  RH  025%=      5-min Rain = 0
KVP1 182215Z 28014KT 16/M04 A2962 RMK A01 T01631035  RH  025%=      5-min Rain = 0
KVP1 182216Z 29014KT 16/M04 A2962 RMK A01 T01631035  RH  026%=      5-min Rain = 0
KVP1 182217Z 29013KT 16/M04 A2962 RMK A01 T01631035  RH  026%=      5-min Rain = 0
KVP1 182218Z 29013KT 16/M03 A2962 RMK A01 T01621034  RH  026%=      5-min Rain = 0
KVP1 182219Z 29013KT 16/M03 A2962 RMK A01 T01621034  RH  026%=      5-min Rain = 0
KVP1 182220Z 29012KT 16/M03 A2962 RMK A01 T01621033  RH  026%=      5-min Rain = 0
KVP1 182221Z 29013KT 16/M03 A2962 RMK A01 T01611033  RH  026%=      5-min Rain = 0
KVP1 182222Z 29012KT 16/M03 A2963 RMK A01 T01601033  RH  026%=      5-min Rain = 0
KVP1 182223Z 29012KT 16/M03 A2963 RMK A01 T01601033  RH  026%=      5-min Rain = 0
KVP1 182224Z 29011KT 16/M03 A2963 RMK A01 T01601032  RH  027%=      5-min Rain = 0
KVP1 182225Z 30014KT 16/M03 A2963 RMK A01 T01591032  RH  027%=      5-min Rain = 0
KVP1 182226Z 30017KT 16/M03 A2963 RMK A01 T01581032  RH  027%=      5-min Rain = 0
KVP1 182227Z 29015G20KT 16/M04 A2963 RMK A01 T01591036  RH  026%=      5-min Rain = 0
KVP1 182228Z 27010KT 16/M04 A2963 RMK A01 T01611037  RH  026%=      5-min Rain = 0
KVP1 182229Z 26009KT 16/M04 A2963 RMK A01 T01621036  RH  025%=      5-min Rain = 0
KVP1 182230Z 27008KT 16/M04 A2962 RMK A01 T01621035  RH  026%=      5-min Rain = 0
KVP1 182231Z 29010KT 16/M03 A2963 RMK A01 T01611034  RH  026%=      5-min Rain = 0
KVP1 182232Z 29012KT 16/M03 A2963 RMK A01 T01601033  RH  026%=      5-min Rain = 0
KVP1 182233Z 29011KT 16/M03 A2963 RMK A01 T01601031  RH  027%=      5-min Rain = 0
KVP1 182234Z 29009KT 16/M03 A2963 RMK A01 T01591031  RH  027%=      5-min Rain = 0
KVP1 182235Z 30009KT 16/M03 A2963 RMK A01 T01581031  RH  027%=      5-min Rain = 0
KVP1 182236Z 30009KT 16/M03 A2963 RMK A01 T01571031  RH  027%=      5-min Rain = 0
KVP1 182237Z 29010KT 16/M03 A2963 RMK A01 T01571030  RH  027%=      5-min Rain = 0
KVP1 182238Z 29010KT 16/M03 A2963 RMK A01 T01561030  RH  028%=      5-min Rain = 0
KVP1 182239Z 30011KT 16/M03 A2963 RMK A01 T01561032  RH  027%=      5-min Rain = 0
KVP1 182240Z 29008KT 16/M03 A2963 RMK A01 T01571032  RH  027%=      5-min Rain = 0
KVP1 182241Z 29007KT 16/M03 A2963 RMK A01 T01571030  RH  027%=      5-min Rain = 0
KVP1 182242Z 27009G15KT 16/M03 A2963 RMK A01 T01571031  RH  027%=      5-min Rain = 0
KVP1 182243Z 27014KT 16/M04 A2963 RMK A01 T01561035  RH  027%=      5-min Rain = 0
KVP1 182244Z 27015KT 16/M04 A2963 RMK A01 T01581038  RH  026%=      5-min Rain = 0
KVP1 182245Z 28014G19KT 16/M04 A2963 RMK A01 T01591040  RH  025%=      5-min Rain = 0
KVP1 182246Z 28014KT 16/M04 A2963 RMK A01 T01601041  RH  025%=      5-min Rain = 0
KVP1 182247Z 28018KT 16/M04 A2963 RMK A01 T01601042  RH  025%=      5-min Rain = 0
KVP1 182248Z 28014KT 16/M04 A2963 RMK A01 T01601043  RH  025%=      5-min Rain = 0
KVP1 182249Z 28013KT 16/M04 A2963 RMK A01 T01601043  RH  025%=      5-min Rain = 0
KVP1 182250Z 28014KT 16/M04 A2963 RMK A01 T01591043  RH  025%=      5-min Rain = 0
KVP1 182251Z 28015KT 16/M04 A2963 RMK A01 T01591043  RH  025%=      5-min Rain = 0
KVP1 182252Z 28013KT 16/M04 A2963 RMK A01 T01591043  RH  025%=      5-min Rain = 0
KVP1 182253Z 29015KT 16/M04 A2963 RMK A01 T01591043  RH  025%=      5-min Rain = 0
KVP1 182254Z 29015KT 16/M04 A2963 RMK A01 T01591044  RH  024%=      5-min Rain = 0
KVP1 182255Z 27013KT 16/M04 A2963 RMK A01 T01591043  RH  025%=      5-min Rain = 0
KVP1 182256Z 29014KT 16/M04 A2963 RMK A01 T01581043  RH  025%=      5-min Rain = 0
KVP1 182257Z 28017KT 16/M04 A2963 RMK A01 T01581043  RH  025%=      5-min Rain = 0
KVP1 182258Z 28015KT 16/M04 A2963 RMK A01 T01581044  RH  025%=      5-min Rain = 0
KVP1 182259Z 27013KT 16/M04 A2963 RMK A01 T01581044  RH  025%=      5-min Rain = 0
KVP1 182300Z 28015KT 16/M04 A2963 RMK A01 T01571044  RH  025%=      5-min Rain = 0
KVP1 182301Z 28015G21KT 16/M04 A2963 RMK A01 T01571044  RH  025%=      5-min Rain = 0
KVP1 182302Z 27018KT 16/M05 A2963 RMK A01 T01571045  RH  025%=      5-min Rain = 0
KVP1 182303Z 27015KT 16/M05 A2963 RMK A01 T01561046  RH  024%=      5-min Rain = 0
KVP1 182304Z 28015KT 16/M05 A2963 RMK A01 T01561046  RH  025%=      5-min Rain = 0
KVP1 182305Z 28015KT 16/M05 A2964 RMK A01 T01561046  RH  025%=      5-min Rain = 0
KVP1 182306Z 28013KT 16/M05 A2963 RMK A01 T01551046  RH  025%=      5-min Rain = 0
KVP1 182307Z 28014KT 16/M05 A2964 RMK A01 T01551045  RH  025%=      5-min Rain = 0
KVP1 182308Z 28013KT 15/M05 A2963 RMK A01 T01541045  RH  025%=      5-min Rain = 0
KVP1 182309Z 28011KT 15/M05 A2963 RMK A01 T01541045  RH  025%=      5-min Rain = 0
KVP1 182310Z 28013KT 15/M05 A2963 RMK A01 T01541046  RH  025%=      5-min Rain = 0
KVP1 182311Z 28013KT 15/M05 A2963 RMK A01 T01541046  RH  025%=      5-min Rain = 0
KVP1 182312Z 28014KT 15/M05 A2963 RMK A01 T01541046  RH  025%=      5-min Rain = 0
KVP1 182313Z 28015KT 15/M05 A2963 RMK A01 T01541047  RH  025%=      5-min Rain = 0
KVP1 182314Z 28016KT 15/M05 A2963 RMK A01 T01541047  RH  025%=      5-min Rain = 0
KVP1 182315Z 28014KT 15/M05 A2963 RMK A01 T01531047  RH  025%=      5-min Rain = 0
KVP1 182316Z 27016KT 15/M05 A2963 RMK A01 T01531047  RH  025%=      5-min Rain = 0
KVP1 182317Z 27013KT 15/M05 A2963 RMK A01 T01521047  RH  025%=      5-min Rain = 0
KVP1 182318Z 27015KT 15/M05 A2963 RMK A01 T01521048  RH  025%=      5-min Rain = 0
KVP1 182319Z 27020KT 15/M05 A2963 RMK A01 T01521048  RH  025%=      5-min Rain = 0
KVP1 182320Z 28021KT 15/M05 A2963 RMK A01 T01521050  RH  024%=      5-min Rain = 0
KVP1 182321Z 27015KT 15/M05 A2963 RMK A01 T01531050  RH  024%=      5-min Rain = 0
KVP1 182322Z 28015KT 15/M05 A2963 RMK A01 T01531049  RH  024%=      5-min Rain = 0
KVP1 182323Z 27015KT 15/M05 A2963 RMK A01 T01531049  RH  025%=      5-min Rain = 0
KVP1 182324Z 28017KT 15/M05 A2963 RMK A01 T01531049  RH  025%=      5-min Rain = 0
KVP1 182325Z 29015KT 15/M05 A2963 RMK A01 T01531050  RH  024%=      5-min Rain = 0
KVP1 182326Z 29015KT 15/M05 A2963 RMK A01 T01541050  RH  024%=      5-min Rain = 0
KVP1 182327Z 29014KT 16/M05 A2963 RMK A01 T01551049  RH  024%=      5-min Rain = 0
KVP1 182328Z 29014KT 16/M05 A2963 RMK A01 T01551049  RH  024%=      5-min Rain = 0
KVP1 182329Z 28012KT 15/M05 A2963 RMK A01 T01541049  RH  024%=      5-min Rain = 0
KVP1 182330Z 28014KT 16/M05 A2963 RMK A01 T01551048  RH  024%=      5-min Rain = 0
KVP1 182331Z 28013KT 16/M05 A2963 RMK A01 T01551048  RH  024%=      5-min Rain = 0
KVP1 182332Z 29012KT 15/M05 A2963 RMK A01 T01541048  RH  024%=      5-min Rain = 0
KVP1 182333Z 30009KT 15/M05 A2964 RMK A01 T01541047  RH  025%=      5-min Rain = 0
KVP1 182334Z 30010KT 15/M05 A2964 RMK A01 T01541046  RH  025%=      5-min Rain = 0
KVP1 182335Z 31009KT 15/M05 A2964 RMK A01 T01531045  RH  025%=      5-min Rain = 0
KVP1 182336Z 31009KT 15/M05 A2964 RMK A01 T01521045  RH  025%=      5-min Rain = 0
KVP1 182337Z 32010KT 15/M05 A2964 RMK A01 T01521045  RH  026%=      5-min Rain = 0
KVP1 182338Z 35013KT 15/M04 A2964 RMK A01 T01511043  RH  026%=      5-min Rain = 0
KVP1 182339Z 00016G22KT 15/M02 A2965 RMK A01 T01461024  RH  031%=      5-min Rain = 0
KVP1 182340Z 00013G18KT 13/M01 A2965 RMK A01 T01341013  RH  036%=      5-min Rain = 0
KVP1 182341Z 36017G23KT 13/M01 A2965 RMK A01 T01261009  RH  039%=      5-min Rain = 0
KVP1 182342Z 36019KT 12/M01 A2965 RMK A01 T01211007  RH  041%=      5-min Rain = 0
KVP1 182343Z 36018G23KT 12/M01 A2965 RMK A01 T01181006  RH  042%=      5-min Rain = 0
KVP1 182344Z 35015KT 12/M01 A2966 RMK A01 T01171005  RH  043%=      5-min Rain = 0
KVP1 182345Z 35013KT 12/M00 A2966 RMK A01 T01161004  RH  044%=      5-min Rain = 0
KVP1 182346Z 34014KT 11/M00 A2967 RMK A01 T01141004  RH  044%=      5-min Rain = 0
KVP1 182347Z 35018KT 11/M00 A2967 RMK A01 T01121003  RH  045%=      5-min Rain = 0
KVP1 182348Z 00017KT 11/M00 A2967 RMK A01 T01081002  RH  047%=      5-min Rain = 0
KVP1 182349Z 35015G21KT 10/M00 A2967 RMK A01 T01041001  RH  048%=      5-min Rain = 0
KVP1 182350Z 36019G25KT 10/00 A2967 RMK A01 T010100-0  RH  050%=      5-min Rain = 0
KVP1 182351Z 35021KT 10/00 A2966 RMK A01 T009600-0  RH  051%=      5-min Rain = 0
KVP1 182352Z 35020KT 09/00 A2967 RMK A01 T009300-0  RH  052%=      5-min Rain = 0
KVP1 182353Z 35026G31KT 09/00 A2966 RMK A01 T009000-0  RH  053%=      5-min Rain = 0
KVP1 182354Z 35025KT 09/00 A2967 RMK A01 T008700-0  RH  054%=      5-min Rain = 0
KVP1 182355Z 35022KT 09/00 A2967 RMK A01 T00850001  RH  055%=      5-min Rain = 0
KVP1 182356Z 35021G26KT 08/00 A2967 RMK A01 T00840001  RH  056%=      5-min Rain = 0
KVP1 182357Z 35021KT 08/00 A2967 RMK A01 T00820000  RH  056%=      5-min Rain = 0
KVP1 182358Z 36021G26KT 08/00 A2968 RMK A01 T008000-0  RH  057%=      5-min Rain = 0
KVP1 182359Z 36022KT 08/00 A2968 RMK A01 T007800-0  RH  058%=      5-min Rain = 0
KVP1 190000Z 36019G26KT 08/00 A2968 RMK A01 T007600-0  RH  059%=      5-min Rain = 0
KVP1 190001Z 36024G31KT 07/00 A2969 RMK A01 T007400-0  RH  059%=      5-min Rain = 0
KVP1 190002Z 35024G30KT 07/M00 A2969 RMK A01 T00711001  RH  060%=      5-min Rain = 0
KVP1 190003Z 35020KT 07/M00 A2969 RMK A01 T00691003  RH  060%=      5-min Rain = 0
KVP1 190004Z 35025G32KT 07/M00 A2969 RMK A01 T00661003  RH  061%=      5-min Rain = 0
KVP1 190005Z 35025G31KT 06/M00 A2969 RMK A01 T00641003  RH  062%=      5-min Rain = 0
KVP1 190006Z 35026G33KT 06/M00 A2969 RMK A01 T00621003  RH  063%=      5-min Rain = 0
KVP1 190007Z 35026G33KT 06/M00 A2969 RMK A01 T00601003  RH  064%=      5-min Rain = 0
KVP1 190008Z 35025G33KT 06/M00 A2969 RMK A01 T00591002  RH  065%=      5-min Rain = 0
KVP1 190009Z 35020G28KT 06/M00 A297 RMK A01 T00581003  RH  065%=      5-min Rain = 0
KVP1 190010Z 36021KT 06/M00 A297 RMK A01 T00571003  RH  065%=      5-min Rain = 0
KVP1 190011Z 36024G29KT 06/M00 A297 RMK A01 T00561003  RH  066%=      5-min Rain = 0
KVP1 190012Z 35023KT 06/M00 A297 RMK A01 T00551003  RH  066%=      5-min Rain = 0
KVP1 190013Z 35023G31KT 05/M00 A2971 RMK A01 T00541004  RH  067%=      5-min Rain = 0
KVP1 190014Z 36024G31KT 05/M00 A2971 RMK A01 T00521004  RH  067%=      5-min Rain = 0
KVP1 190015Z 35023G29KT 05/M00 A2971 RMK A01 T00501004  RH  068%=      5-min Rain = 0
KVP1 190016Z 36024G30KT 05/M00 A2971 RMK A01 T00491004  RH  068%=      5-min Rain = 0
KVP1 190017Z 35021G26KT 05/M00 A2971 RMK A01 T00491004  RH  069%=      5-min Rain = 0
KVP1 190018Z 35021KT 05/M01 A2971 RMK A01 T00481005  RH  069%=      5-min Rain = 0
KVP1 190019Z 36021KT 05/M01 A2972 RMK A01 T00471005  RH  069%=      5-min Rain = 0
KVP1 190020Z 35022G28KT 05/M00 A2972 RMK A01 T00471004  RH  070%=      5-min Rain = 0
KVP1 190021Z 35021KT 05/M00 A2972 RMK A01 T00461004  RH  070%=      5-min Rain = 0
KVP1 190022Z 35023KT 05/M00 A2972 RMK A01 T00461004  RH  070%=      5-min Rain = 0
KVP1 190023Z 35023KT 05/M00 A2972 RMK A01 T00451004  RH  070%=      5-min Rain = 0
KVP1 190024Z 35020KT 05/M00 A2973 RMK A01 T00451004  RH  070%=      5-min Rain = 0
KVP1 190025Z 35019G24KT 05/M00 A2973 RMK A01 T00451004  RH  070%=      5-min Rain = 0
KVP1 190026Z 35021G27KT 04/M00 A2973 RMK A01 T00441004  RH  071%=      5-min Rain = 0
KVP1 190027Z 34020G26KT 04/M00 A2973 RMK A01 T00431004  RH  071%=      5-min Rain = 0
KVP1 190028Z 34024KT 04/M00 A2973 RMK A01 T00441004  RH  071%=      5-min Rain = 0
KVP1 190029Z 35027KT 04/M01 A2973 RMK A01 T00431005  RH  071%=      5-min Rain = 0
KVP1 190030Z 35024G29KT 04/M01 A2973 RMK A01 T00421005  RH  071%=      5-min Rain = 0
KVP1 190031Z 34023G32KT 04/M01 A2974 RMK A01 T00411006  RH  071%=      5-min Rain = 0
KVP1 190032Z 35025G30KT 04/M01 A2974 RMK A01 T00401006  RH  072%=      5-min Rain = 0
KVP1 190033Z 35025G32KT 04/M01 A2974 RMK A01 T00391007  RH  072%=      5-min Rain = 0
KVP1 190034Z 34028G34KT 04/M01 A2974 RMK A01 T00391007  RH  072%=      5-min Rain = 0
KVP1 190035Z 34030KT 04/M01 A2974 RMK A01 T00381007  RH  072%=      5-min Rain = 0
KVP1 190036Z 34027G34KT 04/M01 A2974 RMK A01 T00381007  RH  072%=      5-min Rain = 0
KVP1 190037Z 34027G32KT 04/M01 A2975 RMK A01 T00381007  RH  072%=      5-min Rain = 0
KVP1 190038Z 34025G31KT 04/M01 A2975 RMK A01 T00381007  RH  072%=      5-min Rain = 0
KVP1 190039Z 35024G29KT 04/M01 A2975 RMK A01 T00381007  RH  072%=      5-min Rain = 0
KVP1 190040Z 34021G28KT 04/M01 A2975 RMK A01 T00381007  RH  072%=      5-min Rain = 0
KVP1 190041Z 34027G32KT 04/M01 A2976 RMK A01 T00381008  RH  072%=      5-min Rain = 0
KVP1 190042Z 34027G33KT 04/M01 A2975 RMK A01 T00371008  RH  072%=      5-min Rain = 0
KVP1 190043Z 35031G41KT 04/M01 A2975 RMK A01 T00371008  RH  072%=      5-min Rain = 0
KVP1 190044Z 34027G37KT 04/M01 A2976 RMK A01 T00361009  RH  073%=      5-min Rain = 0
KVP1 190045Z 35028G38KT 04/M01 A2976 RMK A01 T00351009  RH  073%=      5-min Rain = 0
KVP1 190046Z 35030G37KT 03/M01 A2976 RMK A01 T00341009  RH  073%=      5-min Rain = 0
KVP1 190047Z 34031G36KT 03/M01 A2976 RMK A01 T00341010  RH  073%=      5-min Rain = 0
KVP1 190048Z 34029G37KT 03/M01 A2976 RMK A01 T00331010  RH  073%=      5-min Rain = 0
KVP1 190049Z 34029G36KT 03/M01 A2976 RMK A01 T00331010  RH  074%=      5-min Rain = 0
KVP1 190050Z 34030G35KT 03/M01 A2976 RMK A01 T00321010  RH  074%=      5-min Rain = 0
KVP1 190051Z 34028G38KT 03/M01 A2976 RMK A01 T00321010  RH  074%=      5-min Rain = 0
KVP1 190052Z 34032G42KT 03/M01 A2976 RMK A01 T00321010  RH  074%=      5-min Rain = 0
KVP1 190053Z 34032G39KT 03/M01 A2976 RMK A01 T00311011  RH  074%=      5-min Rain = 0
KVP1 190054Z 35029G37KT 03/M01 A2976 RMK A01 T00311011  RH  074%=      5-min Rain = 0
KVP1 190055Z 34026G35KT 03/M01 A2977 RMK A01 T00311010  RH  074%=      5-min Rain = 0
KVP1 190056Z 34033G39KT 03/M01 A2977 RMK A01 T00311010  RH  074%=      5-min Rain = 0
KVP1 190057Z 34029G35KT 03/M01 A2976 RMK A01 T00311011  RH  074%=      5-min Rain = 0
KVP1 190058Z 34028G37KT 03/M01 A2977 RMK A01 T00311011  RH  074%=      5-min Rain = 0
KVP1 190059Z 35030G37KT 03/M01 A2977 RMK A01 T00311011  RH  074%=      5-min Rain = 0
KVP1 190100Z 35027KT 03/M01 A2977 RMK A01 T00301011  RH  074%=      5-min Rain = 0
KVP1 190101Z 34031KT 03/M01 A2977 RMK A01 T00301012  RH  074%=      5-min Rain = 0
KVP1 190102Z 34029KT 03/M01 A2977 RMK A01 T00291012  RH  074%=      5-min Rain = 0
KVP1 190103Z 34030KT 03/M01 A2977 RMK A01 T00291012  RH  075%=      5-min Rain = 0
KVP1 190104Z 34027G34KT 03/M01 A2977 RMK A01 T00291011  RH  075%=      5-min Rain = 0
KVP1 190105Z 34030G36KT 03/M01 A2977 RMK A01 T00291011  RH  075%=      5-min Rain = 0
KVP1 190106Z 34027G34KT 03/M01 A2977 RMK A01 T00291011  RH  075%=      5-min Rain = 0
KVP1 190107Z 34030G37KT 03/M01 A2977 RMK A01 T00291011  RH  075%=      5-min Rain = 0
KVP1 190108Z 34025G33KT 03/M01 A2978 RMK A01 T00291011  RH  075%=      5-min Rain = 0
KVP1 190109Z 34026G32KT 03/M01 A2978 RMK A01 T00291012  RH  075%=      5-min Rain = 0
KVP1 190110Z 34029KT 03/M01 A2978 RMK A01 T00291012  RH  075%=      5-min Rain = 0
KVP1 190111Z 34025G30KT 03/M01 A2978 RMK A01 T00291012  RH  075%=      5-min Rain = 0
KVP1 190112Z 35026G33KT 03/M01 A2978 RMK A01 T00291012  RH  075%=      5-min Rain = 0
KVP1 190113Z 34032G37KT 03/M01 A2978 RMK A01 T00291012  RH  075%=      5-min Rain = 0
KVP1 190114Z 34031G38KT 03/M01 A2979 RMK A01 T00291012  RH  074%=      5-min Rain = 0
KVP1 190115Z 35030G37KT 03/M01 A2979 RMK A01 T00281012  RH  075%=      5-min Rain = 0
KVP1 190116Z 34033G40KT 03/M01 A2979 RMK A01 T00281012  RH  075%=      5-min Rain = 0
KVP1 190117Z 35030G37KT 03/M01 A2979 RMK A01 T00281012  RH  075%=      5-min Rain = 0
KVP1 190118Z 34024KT 03/M01 A2979 RMK A01 T00281011  RH  075%=      5-min Rain = 0
KVP1 190119Z 34025G34KT 03/M01 A2979 RMK A01 T00281011  RH  075%=      5-min Rain = 0
KVP1 190120Z 35026G36KT 03/M01 A2979 RMK A01 T00281011  RH  076%=      5-min Rain = 0
KVP1 190121Z 35029G38KT 03/M01 A2979 RMK A01 T00281011  RH  076%=      5-min Rain = 0
KVP1 190122Z 35026G32KT 03/M01 A298 RMK A01 T00271010  RH  076%=      5-min Rain = 0
KVP1 190123Z 35026G31KT 03/M01 A298 RMK A01 T00271011  RH  076%=      5-min Rain = 0
KVP1 190124Z 35030G40KT 03/M01 A298 RMK A01 T00271010  RH  076%=      5-min Rain = 0
KVP1 190125Z 35028G37KT 03/M01 A298 RMK A01 T00271011  RH  076%=      5-min Rain = 0
KVP1 190126Z 35028KT 03/M01 A298 RMK A01 T00261011  RH  077%=      5-min Rain = 0
KVP1 190127Z 35022G27KT 03/M01 A2981 RMK A01 T00261011  RH  077%=      5-min Rain = 0
KVP1 190128Z 35026G35KT 03/M01 A298 RMK A01 T00261010  RH  077%=      5-min Rain = 0
KVP1 190129Z 35024G29KT 03/M01 A2981 RMK A01 T00261011  RH  077%=      5-min Rain = 0
KVP1 190130Z 34021KT 03/M01 A2981 RMK A01 T00261011  RH  077%=      5-min Rain = 0
KVP1 190131Z 35024G31KT 03/M01 A2981 RMK A01 T00261011  RH  077%=      5-min Rain = 0
KVP1 190132Z 35023G31KT 03/M01 A2982 RMK A01 T00261010  RH  077%=      5-min Rain = 0
KVP1 190133Z 34024KT 03/M01 A2982 RMK A01 T00251011  RH  077%=      5-min Rain = 0
KVP1 190134Z 34027G32KT 03/M01 A2982 RMK A01 T00251011  RH  077%=      5-min Rain = 0
KVP1 190135Z 34026G31KT 03/M01 A2982 RMK A01 T00251011  RH  077%=      5-min Rain = 0
KVP1 190136Z 34026KT 03/M01 A2982 RMK A01 T00251011  RH  077%=      5-min Rain = 0
KVP1 190137Z 34027G34KT 02/M01 A2982 RMK A01 T00241012  RH  077%=      5-min Rain = 0
KVP1 190138Z 34030KT 02/M01 A2982 RMK A01 T00241013  RH  077%=      5-min Rain = 0
KVP1 190139Z 35029G35KT 02/M01 A2982 RMK A01 T00231013  RH  077%=      5-min Rain = 0
KVP1 190140Z 34035G43KT 02/M01 A2982 RMK A01 T00231014  RH  077%=      5-min Rain = 0
KVP1 190141Z 35030G38KT 02/M02 A2983 RMK A01 T00211016  RH  076%=      5-min Rain = 0
KVP1 190142Z 35027G35KT 02/M02 A2983 RMK A01 T00201016  RH  077%=      5-min Rain = 0
KVP1 190143Z 35028G33KT 02/M02 A2983 RMK A01 T00201016  RH  077%=      5-min Rain = 0
KVP1 190144Z 35027G37KT 02/M02 A2983 RMK A01 T00191015  RH  078%=      5-min Rain = 0
KVP1 190145Z 34025G30KT 02/M02 A2983 RMK A01 T00191015  RH  078%=      5-min Rain = 0
KVP1 190146Z 35024G31KT 02/M02 A2983 RMK A01 T00191015  RH  078%=      5-min Rain = 0
KVP1 190147Z 35026G31KT 02/M02 A2984 RMK A01 T00191015  RH  078%=      5-min Rain = 0
KVP1 190148Z 34029G34KT 02/M02 A2984 RMK A01 T00191015  RH  078%=      5-min Rain = 0
KVP1 190149Z 34026KT 02/M02 A2984 RMK A01 T00191016  RH  077%=      5-min Rain = 0
KVP1 190150Z 34030KT 02/M02 A2984 RMK A01 T00191017  RH  077%=      5-min Rain = 0
KVP1 190151Z 34024G30KT 02/M02 A2984 RMK A01 T00191017  RH  077%=      5-min Rain = 0
KVP1 190152Z 34028G33KT 02/M02 A2984 RMK A01 T00191017  RH  077%=      5-min Rain = 0
KVP1 190153Z 34028G35KT 02/M02 A2984 RMK A01 T00181017  RH  078%=      5-min Rain = 0
KVP1 190154Z 34030G36KT 02/M02 A2984 RMK A01 T00181017  RH  078%=      5-min Rain = 0
KVP1 190155Z 34031G37KT 02/M02 A2984 RMK A01 T00181017  RH  078%=      5-min Rain = 0
KVP1 190156Z 34030G37KT 02/M02 A2984 RMK A01 T00171018  RH  078%=      5-min Rain = 0
KVP1 190157Z 34030G35KT 02/M02 A2985 RMK A01 T00161018  RH  078%=      5-min Rain = 0
KVP1 190158Z 34026KT 02/M02 A2985 RMK A01 T00161018  RH  078%=      5-min Rain = 0
KVP1 190159Z 34024G35KT 02/M02 A2985 RMK A01 T00161018  RH  078%=      5-min Rain = 0
KVP1 190200Z 34031G38KT 02/M02 A2985 RMK A01 T00161019  RH  078%=      5-min Rain = 0
KVP1 190201Z 35032G39KT 02/M02 A2985 RMK A01 T00161020  RH  077%=      5-min Rain = 0
KVP1 190202Z 34030G38KT 02/M02 A2985 RMK A01 T00161020  RH  077%=      5-min Rain = 0
KVP1 190203Z 35027G33KT 02/M02 A2985 RMK A01 T00161021  RH  077%=      5-min Rain = 0
KVP1 190204Z 35024G33KT 02/M02 A2985 RMK A01 T00161021  RH  077%=      5-min Rain = 0
KVP1 190205Z 34034G41KT 02/M02 A2985 RMK A01 T00161022  RH  076%=      5-min Rain = 0
KVP1 190206Z 34033G39KT 02/M02 A2985 RMK A01 T00161022  RH  076%=      5-min Rain = 0
KVP1 190207Z 35028G35KT 02/M02 A2985 RMK A01 T00171022  RH  076%=      5-min Rain = 0
KVP1 190208Z 35029KT 02/M02 A2985 RMK A01 T00171022  RH  075%=      5-min Rain = 0
KVP1 190209Z 35026G35KT 02/M02 A2985 RMK A01 T00171022  RH  075%=      5-min Rain = 0
KVP1 190210Z 35025G32KT 02/M02 A2985 RMK A01 T00171022  RH  075%=      5-min Rain = 0
KVP1 190211Z 35024G29KT 02/M02 A2985 RMK A01 T00171022  RH  075%=      5-min Rain = 0
KVP1 190212Z 35024G31KT 02/M02 A2985 RMK A01 T00171022  RH  075%=      5-min Rain = 0
KVP1 190213Z 35030G35KT 02/M02 A2985 RMK A01 T00171022  RH  075%=      5-min Rain = 0
KVP1 190214Z 35024G30KT 02/M02 A2985 RMK A01 T00171022  RH  075%=      5-min Rain = 0
KVP1 190215Z 34031G38KT 02/M02 A2985 RMK A01 T00171022  RH  075%=      5-min Rain = 0
KVP1 190216Z 34031G41KT 02/M02 A2985 RMK A01 T00171023  RH  075%=      5-min Rain = 0
KVP1 190217Z 35033G39KT 02/M02 A2985 RMK A01 T00171023  RH  074%=      5-min Rain = 0
KVP1 190218Z 35030G35KT 02/M02 A2985 RMK A01 T00181023  RH  074%=      5-min Rain = 0
KVP1 190219Z 35027KT 02/M02 A2985 RMK A01 T00171023  RH  074%=      5-min Rain = 0
KVP1 190220Z 35027G36KT 02/M02 A2986 RMK A01 T00171023  RH  075%=      5-min Rain = 0
KVP1 190221Z 35029G35KT 02/M02 A2986 RMK A01 T00181023  RH  074%=      5-min Rain = 0
KVP1 190222Z 35031G37KT 02/M03 A2986 RMK A01 T00171026  RH  073%=      5-min Rain = 0
KVP1 190223Z 35034G40KT 02/M03 A2986 RMK A01 T00181027  RH  072%=      5-min Rain = 0
KVP1 190224Z 36035G42KT 02/M03 A2986 RMK A01 T00181028  RH  072%=      5-min Rain = 0
KVP1 190225Z 35032G40KT 02/M03 A2986 RMK A01 T00171029  RH  071%=      5-min Rain = 0
KVP1 190226Z 34031G40KT 02/M03 A2986 RMK A01 T00171030  RH  071%=      5-min Rain = 0
KVP1 190227Z 35030G35KT 02/M03 A2986 RMK A01 T00171029  RH  072%=      5-min Rain = 0
KVP1 190228Z 35027G33KT 02/M03 A2987 RMK A01 T00171028  RH  072%=      5-min Rain = 0
KVP1 190229Z 35027G32KT 02/M03 A2987 RMK A01 T00171028  RH  072%=      5-min Rain = 0
KVP1 190230Z 35024G29KT 02/M03 A2987 RMK A01 T00171028  RH  072%=      5-min Rain = 0
KVP1 190231Z 35021G29KT 02/M03 A2987 RMK A01 T00171028  RH  072%=      5-min Rain = 0
KVP1 190232Z 35026G31KT 02/M03 A2987 RMK A01 T00171028  RH  072%=      5-min Rain = 0
KVP1 190233Z 35027G33KT 02/M03 A2987 RMK A01 T00161028  RH  072%=      5-min Rain = 0
KVP1 190234Z 34025G30KT 02/M03 A2987 RMK A01 T00171027  RH  073%=      5-min Rain = 0
KVP1 190235Z 35026G35KT 02/M03 A2987 RMK A01 T00171027  RH  073%=      5-min Rain = 0
KVP1 190236Z 35023G29KT 02/M03 A2987 RMK A01 T00161027  RH  073%=      5-min Rain = 0
KVP1 190237Z 35020G26KT 02/M03 A2987 RMK A01 T00161027  RH  073%=      5-min Rain = 0
KVP1 190238Z 35028G35KT 02/M03 A2987 RMK A01 T00161027  RH  073%=      5-min Rain = 0
KVP1 190239Z 35034G40KT 02/M03 A2987 RMK A01 T00161027  RH  073%=      5-min Rain = 0
KVP1 190240Z 34030G38KT 02/M03 A2987 RMK A01 T00161029  RH  072%=      5-min Rain = 0
KVP1 190241Z 35025G31KT 02/M03 A2988 RMK A01 T00151029  RH  073%=      5-min Rain = 0
KVP1 190242Z 35026G35KT 02/M03 A2988 RMK A01 T00151028  RH  073%=      5-min Rain = 0
KVP1 190243Z 34031G38KT 02/M03 A2987 RMK A01 T00151029  RH  073%=      5-min Rain = 0
KVP1 190244Z 34031G36KT 01/M03 A2987 RMK A01 T00141030  RH  072%=      5-min Rain = 0
KVP1 190245Z 34033G41KT 01/M03 A2988 RMK A01 T00141031  RH  072%=      5-min Rain = 0
KVP1 190246Z 35030G38KT 01/M03 A2988 RMK A01 T00141031  RH  072%=      5-min Rain = 0
KVP1 190247Z 35031KT 01/M03 A2988 RMK A01 T00141033  RH  071%=      5-min Rain = 0
KVP1 190248Z 34029G35KT 01/M03 A2988 RMK A01 T00141033  RH  071%=      5-min Rain = 0
KVP1 190249Z 35029G34KT 01/M03 A2988 RMK A01 T00141033  RH  071%=      5-min Rain = 0
KVP1 190250Z 35027G35KT 01/M03 A2989 RMK A01 T00141033  RH  071%=      5-min Rain = 0
KVP1 190251Z 35031G37KT 01/M03 A2989 RMK A01 T00131032  RH  071%=      5-min Rain = 0
KVP1 190252Z 35024G33KT 01/M03 A2989 RMK A01 T00131033  RH  071%=      5-min Rain = 0
KVP1 190253Z 34027G37KT 01/M03 A2989 RMK A01 T00131032  RH  072%=      5-min Rain = 0
KVP1 190254Z 35025G32KT 01/M03 A2989 RMK A01 T00131031  RH  072%=      5-min Rain = 0
KVP1 190255Z 35030KT 01/M03 A2989 RMK A01 T00131031  RH  073%=      5-min Rain = 0
KVP1 190256Z 35025G33KT 01/M03 A299 RMK A01 T00121031  RH  073%=      5-min Rain = 0
KVP1 190257Z 35033KT 01/M03 A2989 RMK A01 T00121030  RH  073%=      5-min Rain = 0
KVP1 190258Z 35025G30KT 01/M03 A299 RMK A01 T00121030  RH  074%=      5-min Rain = 0
KVP1 190259Z 35031G38KT 01/M03 A2989 RMK A01 T00111030  RH  074%=      5-min Rain = 0
KVP1 190300Z 35028G34KT 01/M03 A299 RMK A01 T00111030  RH  074%=      5-min Rain = 0
KVP1 190301Z 35030KT 01/M03 A2989 RMK A01 T00111030  RH  074%=      5-min Rain = 0
KVP1 190302Z 34026G37KT 01/M03 A299 RMK A01 T00111030  RH  074%=      5-min Rain = 0
KVP1 190303Z 35034G42KT 01/M03 A299 RMK A01 T00111031  RH  073%=      5-min Rain = 0
KVP1 190304Z 35032G40KT 01/M03 A299 RMK A01 T00111032  RH  073%=      5-min Rain = 0
KVP1 190305Z 35030G36KT 01/M03 A299 RMK A01 T00111032  RH  073%=      5-min Rain = 0
KVP1 190306Z 35027G32KT 01/M03 A299 RMK A01 T00111032  RH  073%=      5-min Rain = 0
KVP1 190307Z 34031G38KT 01/M03 A299 RMK A01 T00111032  RH  073%=      5-min Rain = 0
KVP1 190308Z 34035G40KT 01/M03 A299 RMK A01 T00101032  RH  073%=      5-min Rain = 0
KVP1 190309Z 35026G31KT 01/M03 A299 RMK A01 T00111033  RH  073%=      5-min Rain = 0
KVP1 190310Z 35032G39KT 01/M03 A299 RMK A01 T00111034  RH  072%=      5-min Rain = 0
KVP1 190311Z 35025KT 01/M04 A299 RMK A01 T00101035  RH  072%=      5-min Rain = 0
KVP1 190312Z 35028G36KT 01/M04 A299 RMK A01 T00101035  RH  072%=      5-min Rain = 0
KVP1 190313Z 35033G41KT 01/M04 A299 RMK A01 T00101035  RH  072%=      5-min Rain = 0
KVP1 190314Z 34033G44KT 01/M04 A299 RMK A01 T00101036  RH  072%=      5-min Rain = 0
KVP1 190315Z 35032G39KT 01/M04 A299 RMK A01 T00101035  RH  072%=      5-min Rain = 0
KVP1 190316Z 35033G38KT 01/M04 A299 RMK A01 T00101035  RH  072%=      5-min Rain = 0
KVP1 190317Z 35026G33KT 01/M04 A299 RMK A01 T00101035  RH  072%=      5-min Rain = 0
KVP1 190318Z 35025G30KT 01/M04 A299 RMK A01 T00101035  RH  072%=      5-min Rain = 0
KVP1 190319Z 35025KT 01/M03 A299 RMK A01 T00101034  RH  072%=      5-min Rain = 0
KVP1 190320Z 34027G35KT 01/M03 A299 RMK A01 T00101034  RH  073%=      5-min Rain = 0
KVP1 190321Z 35028G34KT 01/M03 A299 RMK A01 T00091033  RH  073%=      5-min Rain = 0
KVP1 190322Z 35028G34KT 01/M03 A299 RMK A01 T00101032  RH  073%=      5-min Rain = 0
KVP1 190323Z 35026G32KT 01/M03 A2991 RMK A01 T00101032  RH  074%=      5-min Rain = 0
KVP1 190324Z 35026KT 01/M03 A2991 RMK A01 T00101031  RH  074%=      5-min Rain = 0
KVP1 190325Z 35026G31KT 01/M03 A2991 RMK A01 T00101031  RH  074%=      5-min Rain = 0
KVP1 190326Z 35025G30KT 01/M03 A2991 RMK A01 T00091030  RH  075%=      5-min Rain = 0
KVP1 190327Z 35021G28KT 01/M03 A2991 RMK A01 T00091029  RH  075%=      5-min Rain = 0
KVP1 190328Z 35024G29KT 01/M03 A2992 RMK A01 T00091028  RH  076%=      5-min Rain = 0
KVP1 190329Z 35023KT 01/M03 A2992 RMK A01 T00091028  RH  077%=      5-min Rain = 0
KVP1 190330Z 35025G30KT 01/M03 A2992 RMK A01 T00091027  RH  077%=      5-min Rain = 0
KVP1 190331Z 35021G29KT 01/M03 A2992 RMK A01 T00091026  RH  078%=      5-min Rain = 0
KVP1 190332Z 35021G28KT 01/M03 A2992 RMK A01 T00081025  RH  078%=      5-min Rain = 0
KVP1 190333Z 35018G24KT 01/M02 A2993 RMK A01 T00081024  RH  079%=      5-min Rain = 0
KVP1 190334Z 35023KT 01/M02 A2993 RMK A01 T00081024  RH  079%=      5-min Rain = 0
KVP1 190335Z 35022KT 01/M02 A2993 RMK A01 T00081024  RH  079%=      5-min Rain = 0
KVP1 190336Z 35023G30KT 01/M02 A2993 RMK A01 T00081024  RH  079%=      5-min Rain = 0
KVP1 190337Z 34029G35KT 01/M03 A2993 RMK A01 T00071025  RH  079%=      5-min Rain = 0
KVP1 190338Z 34026G35KT 01/M03 A2993 RMK A01 T00081027  RH  078%=      5-min Rain = 0
KVP1 190339Z 35024G32KT 01/M03 A2993 RMK A01 T00081026  RH  078%=      5-min Rain = 0
KVP1 190340Z 35025G31KT 01/M03 A2993 RMK A01 T00081027  RH  078%=      5-min Rain = 0
KVP1 190341Z 35027KT 01/M03 A2993 RMK A01 T00081025  RH  078%=      5-min Rain = 0
KVP1 190342Z 34026KT 01/M03 A2993 RMK A01 T00081025  RH  079%=      5-min Rain = 0
KVP1 190343Z 34026KT 01/M03 A2993 RMK A01 T00081025  RH  079%=      5-min Rain = 0
KVP1 190344Z 34025G30KT 01/M03 A2993 RMK A01 T00081025  RH  078%=      5-min Rain = 0
KVP1 190345Z 34030G36KT 01/M03 A2993 RMK A01 T00081025  RH  079%=      5-min Rain = 0
KVP1 190346Z 34024KT 01/M03 A2994 RMK A01 T00081025  RH  079%=      5-min Rain = 0
KVP1 190347Z 34026KT 01/M02 A2994 RMK A01 T00071024  RH  079%=      5-min Rain = 0
KVP1 190348Z 34029G34KT 01/M02 A2994 RMK A01 T00071024  RH  080%=      5-min Rain = 0
KVP1 190349Z 34030G38KT 01/M03 A2994 RMK A01 T00061026  RH  079%=      5-min Rain = 0
KVP1 190350Z 34029G40KT 01/M03 A2994 RMK A01 T00061025  RH  079%=      5-min Rain = 0
KVP1 190351Z 34027G34KT 01/M03 A2994 RMK A01 T00061026  RH  079%=      5-min Rain = 0
KVP1 190352Z 34027G34KT 01/M03 A2994 RMK A01 T00061026  RH  079%=      5-min Rain = 0
KVP1 190353Z 34030KT 01/M03 A2994 RMK A01 T00061026  RH  080%=      5-min Rain = 0
KVP1 190354Z 34025G31KT 01/M03 A2994 RMK A01 T00051025  RH  080%=      5-min Rain = 0
KVP1 190355Z 34030KT 01/M03 A2994 RMK A01 T00051026  RH  080%=      5-min Rain = 0
KVP1 190356Z 34027G33KT 01/M03 A2995 RMK A01 T00051025  RH  080%=      5-min Rain = 0
KVP1 190357Z 35024G31KT 00/M03 A2995 RMK A01 T00041025  RH  081%=      5-min Rain = 0
KVP1 190358Z 34023G29KT 00/M02 A2995 RMK A01 T00041024  RH  081%=      5-min Rain = 0
KVP1 190359Z 34021KT 00/M03 A2995 RMK A01 T00041025  RH  081%=      5-min Rain = 0
KVP1 190400Z 34025G31KT 00/M03 A2995 RMK A01 T00041025  RH  081%=      5-min Rain = 0
KVP1 190401Z 34025G30KT 00/M03 A2995 RMK A01 T00041026  RH  080%=      5-min Rain = 0
KVP1 190402Z 35019G27KT 00/M03 A2995 RMK A01 T00041027  RH  080%=      5-min Rain = 0
KVP1 190403Z 34020G27KT 00/M03 A2995 RMK A01 T00041027  RH  080%=      5-min Rain = 0
KVP1 190404Z 35023G30KT 00/M03 A2995 RMK A01 T00041027  RH  079%=      5-min Rain = 0
KVP1 190405Z 34020G26KT 00/M03 A2995 RMK A01 T00041028  RH  079%=      5-min Rain = 0
KVP1 190406Z 35024G36KT 00/M03 A2995 RMK A01 T00041027  RH  079%=      5-min Rain = 0
KVP1 190407Z 34023KT 00/M03 A2995 RMK A01 T00041028  RH  079%=      5-min Rain = 0
KVP1 190408Z 35021G29KT 00/M03 A2995 RMK A01 T00041028  RH  079%=      5-min Rain = 0
KVP1 190409Z 34028G35KT 00/M03 A2995 RMK A01 T00041028  RH  079%=      5-min Rain = 0
KVP1 190410Z 34030G38KT 00/M03 A2995 RMK A01 T00041029  RH  078%=      5-min Rain = 0
KVP1 190411Z 35026G34KT 01/M03 A2995 RMK A01 T00051031  RH  077%=      5-min Rain = 0
KVP1 190412Z 34025G34KT 01/M03 A2995 RMK A01 T00051031  RH  077%=      5-min Rain = 0
KVP1 190413Z 34025KT 01/M03 A2996 RMK A01 T00051030  RH  077%=      5-min Rain = 0
KVP1 190414Z 34023G30KT 01/M03 A2996 RMK A01 T00051029  RH  078%=      5-min Rain = 0
KVP1 190415Z 35020G26KT 01/M03 A2996 RMK A01 T00051028  RH  078%=      5-min Rain = 0
KVP1 190416Z 35024G30KT 01/M03 A2996 RMK A01 T00051029  RH  078%=      5-min Rain = 0
KVP1 190417Z 34027G34KT 01/M03 A2995 RMK A01 T00051031  RH  077%=      5-min Rain = 0
KVP1 190418Z 34022G28KT 01/M03 A2996 RMK A01 T00051031  RH  077%=      5-min Rain = 0
KVP1 190419Z 34027KT 01/M03 A2996 RMK A01 T00061030  RH  077%=      5-min Rain = 0
KVP1 190420Z 35023G32KT 01/M03 A2996 RMK A01 T00061030  RH  077%=      5-min Rain = 0
KVP1 190421Z 34026G35KT 01/M03 A2996 RMK A01 T00061030  RH  077%=      5-min Rain = 0
KVP1 190422Z 34022G28KT 01/M03 A2996 RMK A01 T00061030  RH  077%=      5-min Rain = 0
KVP1 190423Z 35024G30KT 01/M03 A2996 RMK A01 T00051030  RH  077%=      5-min Rain = 0
KVP1 190424Z 34023G28KT 01/M03 A2996 RMK A01 T00061031  RH  076%=      5-min Rain = 0
KVP1 190425Z 34027G36KT 01/M03 A2996 RMK A01 T00061032  RH  076%=      5-min Rain = 0
KVP1 190426Z 34024G33KT 01/M03 A2996 RMK A01 T00061034  RH  075%=      5-min Rain = 0
KVP1 190427Z 34035G41KT 01/M03 A2996 RMK A01 T00051034  RH  075%=      5-min Rain = 0
KVP1 190428Z 35031G40KT 01/M04 A2996 RMK A01 T00061035  RH  074%=      5-min Rain = 0
KVP1 190429Z 35029G36KT 01/M04 A2996 RMK A01 T00051036  RH  074%=      5-min Rain = 0
KVP1 190430Z 34040G45KT 01/M04 A2996 RMK A01 T00051036  RH  074%=      5-min Rain = 0
KVP1 190431Z 34035G42KT 00/M04 A2996 RMK A01 T00041036  RH  075%=      5-min Rain = 0
KVP1 190432Z 35033G41KT 00/M04 A2996 RMK A01 T00031035  RH  075%=      5-min Rain = 0
KVP1 190433Z 34031G36KT 00/M04 A2996 RMK A01 T00031035  RH  076%=      5-min Rain = 0
KVP1 190434Z 34033G40KT 00/M03 A2996 RMK A01 T00031034  RH  076%=      5-min Rain = 0
KVP1 190435Z 34033G42KT 00/M03 A2996 RMK A01 T00021034  RH  076%=      5-min Rain = 0
KVP1 190436Z 34030G38KT 00/M03 A2996 RMK A01 T00021034  RH  077%=      5-min Rain = 0
KVP1 190437Z 34031G38KT 00/M03 A2996 RMK A01 T00021033  RH  077%=      5-min Rain = 0
KVP1 190438Z 34033G41KT 00/M03 A2996 RMK A01 T00021034  RH  077%=      5-min Rain = 0
KVP1 190439Z 34035G42KT 00/M03 A2996 RMK A01 T00021034  RH  077%=      5-min Rain = 0
KVP1 190440Z 35030G35KT 00/M03 A2996 RMK A01 T00021033  RH  077%=      5-min Rain = 0
KVP1 190441Z 34029G36KT 00/M03 A2997 RMK A01 T00021033  RH  078%=      5-min Rain = 0
KVP1 190442Z 35025KT 00/M03 A2997 RMK A01 T00021032  RH  078%=      5-min Rain = 0
KVP1 190443Z 35026KT 00/M03 A2997 RMK A01 T00011032  RH  078%=      5-min Rain = 0
KVP1 190444Z 35027G32KT 00/M03 A2996 RMK A01 T00011032  RH  079%=      5-min Rain = 0
KVP1 190445Z 34029G36KT 00/M03 A2997 RMK A01 T00011032  RH  078%=      5-min Rain = 0
KVP1 190446Z 34026G36KT 00/M03 A2997 RMK A01 T00011033  RH  078%=      5-min Rain = 0
KVP1 190447Z 35027KT 00/03 A2997 RMK A01 T00000-32  RH  079%=      5-min Rain = 0
KVP1 190448Z 35036G42KT 00/03 A2997 RMK A01 T00000-34  RH  078%=      5-min Rain = 0
KVP1 190449Z 35034G41KT 00/M04 A2996 RMK A01 T00011036  RH  077%=      5-min Rain = 0
KVP1 190450Z 35029G40KT 00/M04 A2997 RMK A01 T00011035  RH  077%=      5-min Rain = 0
KVP1 190451Z 35030G38KT 00/04 A2997 RMK A01 T00000-35  RH  077%=      5-min Rain = 0
KVP1 190452Z 35030G38KT 00/04 A2997 RMK A01 T00-00-35  RH  077%=      5-min Rain = 0
KVP1 190453Z 35028G35KT 00/04 A2997 RMK A01 T00-00-35  RH  077%=      5-min Rain = 0
KVP1 190454Z 34029G35KT 00/04 A2997 RMK A01 T00-00-36  RH  077%=      5-min Rain = 0
KVP1 190455Z 35027G35KT 00/04 A2997 RMK A01 T00-00-36  RH  077%=      5-min Rain = 0
KVP1 190456Z 35033G41KT 00/04 A2997 RMK A01 T00-00-36  RH  077%=      5-min Rain = 0
KVP1 190457Z 35033G38KT M00/M04 A2997 RMK A01 T10011036  RH  077%=      5-min Rain = 0
KVP1 190458Z 35031G37KT M00/M04 A2997 RMK A01 T10011037  RH  077%=      5-min Rain = 0
KVP1 190459Z 35034G39KT M00/M04 A2997 RMK A01 T10011037  RH  077%=      5-min Rain = 0
KVP1 190500Z 35029G35KT M00/M04 A2997 RMK A01 T10011037  RH  076%=      5-min Rain = 0
KVP1 190501Z 35029G35KT M00/M04 A2997 RMK A01 T10011037  RH  076%=      5-min Rain = 0
KVP1 190502Z 36030G38KT M00/M04 A2998 RMK A01 T10011037  RH  077%=      5-min Rain = 0
KVP1 190503Z 35025G31KT M00/M04 A2998 RMK A01 T10011037  RH  077%=      5-min Rain = 0
KVP1 190504Z 35031G37KT M00/M04 A2998 RMK A01 T10011037  RH  077%=      5-min Rain = 0
KVP1 190505Z 35026G31KT M00/M04 A2998 RMK A01 T10011036  RH  077%=      5-min Rain = 0
KVP1 190506Z 35029G35KT M00/M04 A2998 RMK A01 T10011036  RH  077%=      5-min Rain = 0
KVP1 190507Z 35029G38KT M00/M04 A2998 RMK A01 T10011036  RH  077%=      5-min Rain = 0
KVP1 190508Z 35031G38KT M00/M04 A2998 RMK A01 T10011036  RH  078%=      5-min Rain = 0
KVP1 190509Z 35028G33KT M00/M04 A2998 RMK A01 T10011035  RH  078%=      5-min Rain = 0
KVP1 190510Z 35030G39KT M00/M04 A2998 RMK A01 T10021035  RH  078%=      5-min Rain = 0
KVP1 190511Z 35029G34KT M00/M04 A2998 RMK A01 T10021035  RH  078%=      5-min Rain = 0
KVP1 190512Z 35026G34KT M00/M03 A2998 RMK A01 T10021034  RH  079%=      5-min Rain = 0
KVP1 190513Z 35030G37KT M00/M03 A2998 RMK A01 T10011034  RH  079%=      5-min Rain = 0
KVP1 190514Z 35026G33KT M00/M03 A2999 RMK A01 T10011034  RH  079%=      5-min Rain = 0
KVP1 190515Z 35032KT M00/M03 A2999 RMK A01 T10011034  RH  079%=      5-min Rain = 0
KVP1 190516Z 35028G37KT M00/M03 A2999 RMK A01 T10011033  RH  079%=      5-min Rain = 0
KVP1 190517Z 35028KT M00/M03 A2999 RMK A01 T10011034  RH  078%=      5-min Rain = 0
KVP1 190518Z 35028G33KT 00/03 A2999 RMK A01 T00-00-33  RH  078%=      5-min Rain = 0
KVP1 190519Z 35028G35KT 00/03 A2999 RMK A01 T00000-33  RH  078%=      5-min Rain = 0
KVP1 190520Z 35023G29KT 00/03 A2999 RMK A01 T00-00-33  RH  079%=      5-min Rain = 0
KVP1 190521Z 35024G29KT 00/03 A30 RMK A01 T00000-32  RH  079%=      5-min Rain = 0
KVP1 190522Z 35024G31KT 00/03 A30 RMK A01 T00000-32  RH  079%=      5-min Rain = 0
KVP1 190523Z 36023G29KT 00/03 A30 RMK A01 T00000-32  RH  079%=      5-min Rain = 0
KVP1 190524Z 35023KT 00/03 A30 RMK A01 T00000-31  RH  079%=      5-min Rain = 0
KVP1 190525Z 35023G28KT 00/03 A30 RMK A01 T00000-31  RH  079%=      5-min Rain = 0
KVP1 190526Z 35025G30KT 00/03 A30 RMK A01 T00000-31  RH  079%=      5-min Rain = 0
KVP1 190527Z 35023KT 00/03 A30 RMK A01 T00-00-31  RH  080%=      5-min Rain = 0
KVP1 190528Z 35022G29KT 00/03 A3001 RMK A01 T00-00-31  RH  080%=      5-min Rain = 0
KVP1 190529Z 35025G30KT 00/03 A3001 RMK A01 T00-00-31  RH  080%=      5-min Rain = 0
KVP1 190530Z 34022KT 00/03 A3001 RMK A01 T00-00-31  RH  080%=      5-min Rain = 0
KVP1 190531Z 34025G31KT 00/03 A3001 RMK A01 T00-00-31  RH  080%=      5-min Rain = 0
KVP1 190532Z 35022G31KT 00/03 A3001 RMK A01 T00-00-30  RH  080%=      5-min Rain = 0
KVP1 190533Z 34027G32KT 00/03 A3001 RMK A01 T00-00-31  RH  080%=      5-min Rain = 0
KVP1 190534Z 35021KT 00/03 A3001 RMK A01 T00-00-31  RH  080%=      5-min Rain = 0
KVP1 190535Z 35022G29KT M00/M03 A3002 RMK A01 T10011030  RH  080%=      5-min Rain = 0
KVP1 190536Z 34026G31KT 00/03 A3002 RMK A01 T00-00-30  RH  081%=      5-min Rain = 0
KVP1 190537Z 35022G29KT 00/03 A3002 RMK A01 T00-00-30  RH  081%=      5-min Rain = 0
KVP1 190538Z 34023G30KT M00/M03 A3002 RMK A01 T10011030  RH  081%=      5-min Rain = 0
KVP1 190539Z 35024G29KT M00/M03 A3002 RMK A01 T10011030  RH  081%=      5-min Rain = 0
KVP1 190540Z 35019G25KT 00/03 A3002 RMK A01 T00-00-29  RH  081%=      5-min Rain = 0
KVP1 190541Z 35023G28KT M00/M03 A3002 RMK A01 T10011029  RH  081%=      5-min Rain = 0
KVP1 190542Z 34020KT M00/M03 A3002 RMK A01 T10011029  RH  081%=      5-min Rain = 0
KVP1 190543Z 34022G28KT M00/M03 A3002 RMK A01 T10011029  RH  082%=      5-min Rain = 0
KVP1 190544Z 35020KT M00/M03 A3002 RMK A01 T10011028  RH  082%=      5-min Rain = 0
KVP1 190545Z 34024G29KT M00/M03 A3003 RMK A01 T10011028  RH  082%=      5-min Rain = 0
KVP1 190546Z 34024G33KT M00/M03 A3003 RMK A01 T10011027  RH  082%=      5-min Rain = 0
KVP1 190547Z 34023KT M00/M03 A3003 RMK A01 T10011028  RH  082%=      5-min Rain = 0
KVP1 190548Z 34019G26KT M00/M03 A3003 RMK A01 T10011028  RH  082%=      5-min Rain = 0
KVP1 190549Z 34019G25KT M00/M03 A3003 RMK A01 T10011027  RH  083%=      5-min Rain = 0
KVP1 190550Z 34025G30KT M00/M03 A3003 RMK A01 T10011027  RH  083%=      5-min Rain = 0
KVP1 190551Z 34025G30KT M00/M03 A3003 RMK A01 T10011027  RH  083%=      5-min Rain = 0
KVP1 190552Z 34026G32KT M00/M03 A3003 RMK A01 T10021027  RH  083%=      5-min Rain = 0
KVP1 190553Z 34025G31KT M00/M03 A3003 RMK A01 T10021026  RH  083%=      5-min Rain = 0
KVP1 190554Z 34025G31KT M00/M03 A3003 RMK A01 T10021026  RH  084%=      5-min Rain = 0
KVP1 190555Z 34022G27KT M00/M03 A3003 RMK A01 T10021026  RH  084%=      5-min Rain = 0
KVP1 190556Z 34022G27KT M00/M03 A3003 RMK A01 T10021025  RH  084%=      5-min Rain = 0
KVP1 190557Z 34022KT M00/M03 A3003 RMK A01 T10021025  RH  085%=      5-min Rain = 0
KVP1 190558Z 33021KT M00/M03 A3003 RMK A01 T10021025  RH  085%=      5-min Rain = 0
KVP1 190559Z 34023KT M00/M03 A3003 RMK A01 T10021025  RH  085%=      5-min Rain = 0

Page generated in 0.147 seconds.